Graceful Lady — 00 — position and weather

sailwx.info

Track history (hours):
 
Tides and Currents Weather Stations Pressure Air Temp Water Temp Dewpoint Dewpoint Depression Visibility Wind Speed Wind Dir Waves Ship Positions

Graceful Lady

Last reported at 2017-Jan-19 04:33 UTC. Time now 2017-Jan-19 04:36 UTC.
Position N 31°39' E 121°21'.

Length 6 m.

Type: Pollution control. MMSI: 316014038.

Date/timePositionNaut miles runAvg speedWind from/ knotsBaromVisibWave heightAir tempDewpointWater temp
2017-Jan-19 04:33N 31°39' E 121°21'357642670.8
2017-Jan-19 04:33N 37°36' E 121°25'364187261.0
2017-Jan-19 04:33N 31°31' E 121°20'43153379.2
2017-Jan-19 04:33N 31°15' E 122°05'5237592.9
2017-Jan-19 04:33N 31°41' E 121°12'1111.1
2017-Jan-19 03:33N 31°31' E 121°20'4313943.6
2017-Jan-19 03:33N 31°15' E 122°05'382458744.4
2017-Jan-19 03:33N 37°36' E 121°25'35728563.1
2017-Jan-19 03:32N 31°39' E 121°21'765.4
2017-Jan-19 03:26N 31°40' E 121°13'3 3.9
2017-Jan-19 02:34N 31°38' E 121°16'724403.4
2017-Jan-19 02:33N 31°31' E 121°20'4376685.4
2017-Jan-19 02:33N 31°15' E 122°05'382688116.6
2017-Jan-19 02:33N 37°36' E 121°25'35731349.8
2017-Jan-19 02:33N 31°39' E 121°21'7 7.3
2017-Jan-19 01:33N 31°31' E 121°20'725786.1
2017-Jan-19 01:33N 31°39' E 121°21'4580755.2
2017-Jan-19 01:33N 31°15' E 122°05'382688116.6
2017-Jan-19 01:33N 37°36' E 121°25'361144549.5
2017-Jan-19 01:33N 31°34' E 121°19'3 2.8
2017-Jan-19 00:33N 31°31' E 121°20'4376685.4
2017-Jan-19 00:33N 31°15' E 122°05'382688116.6
2017-Jan-19 00:33N 37°36' E 121°25'365218822.8
2017-Jan-19 00:33N 31°31' E 121°24'8514.3
2017-Jan-19 00:32N 31°39' E 121°21'357363.1
2017-Jan-18 23:33N 37°35' E 121°25'3647527.4
2017-Jan-18 23:31N 31°31' E 121°20'4376685.4
2017-Jan-18 23:30N 31°15' E 122°05'33620.0
2017-Jan-18 23:27N 31°27' E 121°29'14462.6
2017-Jan-18 23:25N 31°39' E 121°21'7 8.3
2017-Jan-18 22:34N 31°31' E 121°19'4338387.2
2017-Jan-18 22:33N 31°15' E 122°05'381685511.4
2017-Jan-18 22:33N 37°34' E 121°25'356160035.4
2017-Jan-18 22:33N 31°39' E 121°21'7 7.1
2017-Jan-18 21:33N 31°32' E 121°19'43153819.3
2017-Jan-18 21:33N 31°15' E 122°05'381457000.5
2017-Jan-18 21:33N 37°34' E 121°25'35612310.2
2017-Jan-18 21:32N 31°39' E 121°21'23328.5
2017-Jan-18 21:27N 31°18' E 121°34'1820.0
2017-Jan-18 20:33N 31°32' E 121°19'2070235.9
2017-Jan-18 20:33N 31°15' E 121°31'29105260.8
2017-Jan-18 20:33N 31°15' E 122°05'383114914.8
2017-Jan-18 20:33N 37°37' E 121°27'35816738.0
2017-Jan-18 20:32N 31°39' E 121°21'4546.0
2017-Jan-18 19:33N 31°15' E 122°05'390468376.2
2017-Jan-18 19:33N 37°44' E 121°30'373223512.1
2017-Jan-18 19:33N 31°32' E 121°19'725591.1
2017-Jan-18 19:33N 31°39' E 121°21'289125.8
2017-Jan-18 19:33N 31°12' E 121°29'2221.7
2017-Jan-18 18:33N 31°31' E 121°19'4351182.9
2017-Jan-18 18:33N 31°15' E 122°05'33119128.8
2017-Jan-18 18:33N 31°07' E 121°28'324806.6
2017-Jan-18 18:33N 31°39' E 121°21'7 7.2
2017-Jan-18 17:34N 31°31' E 121°19'4310967.2
2017-Jan-18 17:33N 31°15' E 122°05'343170.1
2017-Jan-18 17:33N 31°01' E 121°29'38664.8
2017-Jan-18 17:29N 31°39' E 121°21'7 7.7
2017-Jan-18 16:34N 31°31' E 121°19'4351180.1
2017-Jan-18 16:33N 31°15' E 122°05'4532302.1
2017-Jan-18 16:33N 31°39' E 121°21'7 7.2
2017-Jan-18 15:34N 31°31' E 121°19'4351180.1
2017-Jan-18 15:33N 31°15' E 122°05'453845.5
2017-Jan-18 15:33N 31°39' E 121°21'7 7.3
2017-Jan-18 14:34N 31°31' E 121°19'4351180.1
2017-Jan-18 14:33N 31°15' E 122°05'454141.3
2017-Jan-18 14:33N 31°39' E 121°21'7 7.3
2017-Jan-18 13:33N 31°31' E 121°19'4376774.5
2017-Jan-18 13:33N 31°15' E 122°05'451648.2
2017-Jan-18 13:32N 31°39' E 121°21'0 0.0
2017-Jan-18 12:33N 31°39' E 121°21'4580755.2
2017-Jan-18 12:33N 31°15' E 122°05'435483.6
2017-Jan-18 12:33N 31°31' E 121°19'71216408797.9
2017-Jan-18 12:33N 28°08' W 015°26'690413963.2
2017-Jan-18 12:03N 38°39' E 121°49'428864.4
2017-Jan-18 11:34N 31°31' E 121°19'4351180.1
2017-Jan-18 11:33N 31°15' E 122°05'448403297.8
2017-Jan-18 11:33N 38°43' E 121°50'42531211.3
2017-Jan-18 11:33N 31°39' E 121°21'7 7.3
2017-Jan-18 10:34N 31°31' E 121°19'4351242.3
2017-Jan-18 10:33N 31°15' E 122°05'4510094.4
2017-Jan-18 10:33N 31°39' E 121°21'43264821.8
2017-Jan-18 10:33N 38°50' E 121°53'439444.4
2017-Jan-18 09:33N 31°32' E 121°19'43153768.8
2017-Jan-18 09:33N 31°15' E 122°05'453670.7
2017-Jan-18 09:33N 31°39' E 121°21'4545.4
2017-Jan-18 08:33N 31°15' E 122°05'458075.5
2017-Jan-18 08:33N 31°39' E 121°21'37176.2
2017-Jan-18 08:21N 31°02' E 121°29'3038.6
2017-Jan-18 07:33N 31°32' E 121°19'437690.5
2017-Jan-18 07:33N 31°15' E 122°05'4580755.2
2017-Jan-18 07:33N 31°39' E 121°21'321437.5
2017-Jan-18 07:32N 31°07' E 121°28'3334.3
2017-Jan-18 06:33N 31°15' E 122°05'329596.3
2017-Jan-18 06:33N 31°11' E 121°28'282506.8
2017-Jan-18 06:33N 31°39' E 121°21'0 0.0
2017-Jan-18 05:33N 31°39' E 121°21'45161510.5
2017-Jan-18 05:33N 31°15' E 122°05'1210504.5
2017-Jan-18 05:33N 31°09' E 121°53'3736.6
2017-Jan-18 04:33N 31°31' E 121°19'43153548.8
2017-Jan-18 04:33N 31°15' E 122°05'4512423.9
2017-Jan-18 04:33N 31°39' E 121°21'242149.0
2017-Jan-18 04:33N 31°17' E 121°34'1914.3
2017-Jan-18 03:12N 31°31' E 121°19'7573.2
2017-Jan-18 03:11N 31°39' E 121°21'0 0.0
2017-Jan-18 02:33N 31°39' E 121°21'72344.9
2017-Jan-18 02:33N 31°31' E 121°19'0 0.0
2017-Jan-18 01:33N 31°31' E 121°19'7781.6
2017-Jan-18 01:33N 31°39' E 121°21'7 7.3
2017-Jan-18 00:33N 31°31' E 121°19'61856.6
2017-Jan-18 00:33N 31°29' E 121°26'1113097.6
2017-Jan-18 00:33N 31°39' E 121°21'7 7.2
2017-Jan-17 23:33N 31°31' E 121°19'11269.5
2017-Jan-17 23:33N 31°32' E 121°21'71441.2
2017-Jan-17 23:33N 31°39' E 121°21'4593.3
2017-Jan-17 23:04N 31°15' E 122°05'4179.9
2017-Jan-17 22:33N 31°31' E 121°21'6314.1
2017-Jan-17 22:32N 31°36' E 121°17'4269.7
2017-Jan-17 22:31N 31°39' E 121°21'1616.2
2017-Jan-17 21:34N 31°25' E 121°31'1911647.0
2017-Jan-17 21:33N 31°38' E 121°14'6215.2
2017-Jan-17 21:32N 31°39' E 121°21'0 0.0
2017-Jan-17 20:33N 31°39' E 121°21'261380.3
2017-Jan-17 20:32N 31°20' E 121°42'3736.9
2017-Jan-17 19:33N 31°42' E 121°08'11260.9
2017-Jan-17 19:30N 31°39' E 121°21'0 0.0
2017-Jan-17 18:30N 31°39' E 121°21'16505.0
2017-Jan-17 18:28N 31°45' E 121°04'1616.9
2017-Jan-17 17:33N 31°39' E 121°21'0 0.0
2017-Jan-17 16:34N 31°39' E 121°21'0 0.0
2017-Jan-17 15:33N 31°39' E 121°21'0 0.0
2017-Jan-17 14:32N 31°39' E 121°21'0 0.0
2017-Jan-17 13:33N 31°39' E 121°21'0 0.0
2017-Jan-17 12:33N 31°39' E 121°21'432435.1
2017-Jan-17 11:33N 38°50' E 121°56'43214406.8
2017-Jan-17 11:31N 31°39' E 121°21'0 0.0
2017-Jan-17 10:34N 31°39' E 121°21'423507684.6
2017-Jan-17 10:33N 38°41' E 121°53'9043499.6
2017-Jan-17 10:18N 23°57' E 118°07'4904073.7
2017-Jan-17 10:11N 31°39' E 121°14'712.0
2017-Jan-17 09:33N 31°33' E 121°20'5184.0
2017-Jan-17 09:32N 31°39' E 121°21'4833026.9
2017-Jan-17 09:22N 24°06' E 118°09'4855341.2
2017-Jan-17 09:17N 31°47' E 121°00'478657.7
2017-Jan-17 08:33N 24°13' E 118°11'476244763.8
2017-Jan-17 08:33N 31°39' E 121°21'1238.3
2017-Jan-17 08:15N 31°43' E 121°08'469680.0
2017-Jan-17 07:33N 24°21' E 118°09'46948259.5
2017-Jan-17 07:33N 31°39' E 121°21'6339.1
2017-Jan-17 07:32N 31°39' E 121°14'466480.5
2017-Jan-17 06:33N 24°25' E 118°04'467841291.5
2017-Jan-17 06:33N 31°39' E 121°21'51269.8
2017-Jan-17 06:33N 31°34' E 121°19'6 6.0
2017-Jan-17 05:33N 31°30' E 121°25'91807.1
2017-Jan-17 05:33N 31°39' E 121°21'46812755.3
2017-Jan-17 05:31N 24°25' E 118°02'0 0.0
2017-Jan-17 04:34N 24°25' E 118°02'8091456977.5
2017-Jan-17 04:33N 37°36' E 121°25'357116855.6
2017-Jan-17 04:33N 31°39' E 121°21'371167169.7
2017-Jan-17 04:33N 37°50' E 121°33'9 8.6
2017-Jan-17 03:34N 37°42' E 121°30'725539.7
2017-Jan-17 03:33N 37°36' E 121°25'35730606.7
2017-Jan-17 03:33N 31°39' E 121°21'46812755.3
2017-Jan-17 03:31N 24°25' E 118°02'808849.5
2017-Jan-17 02:34N 37°34' E 121°28'34825.1
2017-Jan-17 02:33N 37°36' E 121°25'35711477.5
2017-Jan-17 02:32N 31°39' E 121°21'46825905.2
2017-Jan-17 02:31N 24°25' E 118°02'803845.3
2017-Jan-17 01:34N 37°28' E 121°34'34957127.0
2017-Jan-17 01:33N 31°39' E 121°21'35775609.7
2017-Jan-17 01:33N 37°36' E 121°25'80920666.9
2017-Jan-17 01:31N 24°25' E 118°02'802842.2
2017-Jan-17 00:33N 37°26' E 121°35'121263.0
2017-Jan-17 00:33N 37°36' E 121°25'35720083.8
2017-Jan-17 00:32N 31°39' E 121°21'46823713.3
2017-Jan-17 00:31N 24°25' E 118°02'809849.5
2017-Jan-16 23:33N 37°36' E 121°25'3571285364.8
2017-Jan-16 23:33N 31°39' E 121°21'3481253230.7
2017-Jan-16 23:33N 37°26' E 121°35'80217297.6
2017-Jan-16 23:31N 24°25' E 118°02'802844.2
2017-Jan-16 22:34N 37°27' E 121°35'122273.4
2017-Jan-16 22:33N 37°36' E 121°25'357642682.4
2017-Jan-16 22:33N 31°39' E 121°21'46810589.0
2017-Jan-16 22:31N 24°25' E 118°02'4632468.4
2017-Jan-16 22:19N 31°15' E 122°05'89553.8
2017-Jan-16 22:19N 31°15' E 121°56'14198.3
2017-Jan-16 22:15N 31°19' E 121°41'2130.9
2017-Jan-16 21:33N 31°15' E 122°05'1517526.0
2017-Jan-16 21:33N 31°17' E 121°49'370443469.7
2017-Jan-16 21:33N 37°27' E 121°35'123322.6
2017-Jan-16 21:33N 37°36' E 121°25'377112954.2
2017-Jan-16 21:33N 31°19' E 121°41'261971.9
2017-Jan-16 21:32N 31°39' E 121°21'46817911.1
2017-Jan-16 21:31N 24°25' E 118°02'802844.0
2017-Jan-16 20:34N 37°27' E 121°35'373223566.9
2017-Jan-16 20:33N 31°15' E 122°05'38249151.4
2017-Jan-16 20:33N 37°36' E 121°25'37779732.4
2017-Jan-16 20:33N 31°19' E 121°41'269268.1
2017-Jan-16 20:33N 31°39' E 121°21'46814768.8
2017-Jan-16 20:31N 24°25' E 118°02'802843.2
2017-Jan-16 19:34N 37°27' E 121°35'373268280.3
2017-Jan-16 19:33N 31°15' E 122°05'382105864.6
2017-Jan-16 19:33N 37°36' E 121°25'3579811.9
2017-Jan-16 19:31N 31°39' E 121°21'46860139.6
2017-Jan-16 19:31N 24°25' E 118°02'45726987.4
2017-Jan-16 19:30N 31°19' E 121°41'367393.2
2017-Jan-16 18:34N 37°27' E 121°35'1214403.5
2017-Jan-16 18:33N 37°36' E 121°25'382125114.6
2017-Jan-16 18:33N 31°15' E 122°05'211379.5
2017-Jan-16 18:32N 31°19' E 121°41'2623170.2
2017-Jan-16 18:32N 31°39' E 121°21'46816036.5
2017-Jan-16 18:31N 24°25' E 118°02'717226239.7
2017-Jan-16 18:14N 05°18' W 004°03'733410825.4
2017-Jan-16 17:33N 31°17' E 121°45'1821180.6
2017-Jan-16 17:33N 31°15' E 122°05'373335350.4
2017-Jan-16 17:33N 37°27' E 121°35'1210798.5
2017-Jan-16 17:33N 37°36' E 121°25'35715868.7
2017-Jan-16 17:32N 31°39' E 121°21'46820044.8
2017-Jan-16 17:31N 24°25' E 118°02'4575225.7
2017-Jan-16 17:25N 31°19' E 121°41'1821.0
2017-Jan-16 16:33N 31°07' E 121°56'380170956.7
2017-Jan-16 16:33N 37°27' E 121°35'125399.3
2017-Jan-16 16:33N 37°36' E 121°25'382172029.9
2017-Jan-16 16:33N 31°15' E 122°05'46311035.5
2017-Jan-16 16:31N 24°25' E 118°02'46813052.7
2017-Jan-16 16:28N 31°39' E 121°21'348380.6
2017-Jan-16 15:34N 37°27' E 121°35'3841381549.2
2017-Jan-16 15:34N 31°03' E 122°03'711850.4
2017-Jan-16 15:33N 30°60' E 122°09'1518551.7
2017-Jan-16 15:33N 31°15' E 122°05'38259836.5
2017-Jan-16 15:33N 37°36' E 121°25'80919556.5
2017-Jan-16 15:31N 24°25' E 118°02'45713950.1
2017-Jan-16 15:29N 31°19' E 121°41'262439.0
2017-Jan-16 15:28N 31°39' E 121°21'4549.3
2017-Jan-16 14:33N 31°15' E 122°05'373447133.9
2017-Jan-16 14:33N 37°27' E 121°35'121489.5
2017-Jan-16 14:33N 37°36' E 121°25'37716330.7
2017-Jan-16 14:31N 31°19' E 121°41'261716.3
2017-Jan-16 14:31N 31°39' E 121°21'468561286.2
2017-Jan-16 14:31N 24°25' E 118°02'803844.0
2017-Jan-16 13:33N 37°27' E 121°35'3731341401.6
2017-Jan-16 13:33N 31°15' E 122°05'452018.9
2017-Jan-16 13:32N 31°39' E 121°21'357214227.5
2017-Jan-16 13:32N 37°36' E 121°25'80932741.9
2017-Jan-16 13:31N 24°25' E 118°02'4571127.5
2017-Jan-16 13:06N 31°19' E 121°41'457839.0
2017-Jan-16 12:34N 24°25' E 118°02'8032889099.1
2017-Jan-16 12:34N 37°27' E 121°35'373268280.3
2017-Jan-16 12:33N 31°15' E 122°05'382458753.6
2017-Jan-16 12:33N 37°36' E 121°25'3779348.1
2017-Jan-16 12:31N 31°19' E 121°41'26340.7
2017-Jan-16 12:26N 31°39' E 121°21'348394.9
2017-Jan-16 11:34N 37°27' E 121°35'37389426.8
2017-Jan-16 11:33N 31°15' E 122°05'382344059.8
2017-Jan-16 11:33N 37°36' E 121°25'35721071.6
2017-Jan-16 11:32N 31°39' E 121°21'46817181.4
2017-Jan-16 11:31N 24°25' E 118°02'4579856.8
2017-Jan-16 11:28N 31°19' E 121°41'367406.0
2017-Jan-16 10:34N 37°27' E 121°35'367661042.9
2017-Jan-16 10:33N 31°19' E 121°41'2125749.8
2017-Jan-16 10:33N 31°15' E 122°05'38276457.7
2017-Jan-16 10:33N 37°36' E 121°25'357183623.5
2017-Jan-16 10:33N 31°39' E 121°21'46811612.0
2017-Jan-16 10:31N 24°25' E 118°02'802843.7
2017-Jan-16 09:34N 37°27' E 121°35'373223566.9
2017-Jan-16 09:33N 31°15' E 122°05'38249151.4
2017-Jan-16 09:33N 37°36' E 121°25'357257073.0
2017-Jan-16 09:33N 31°39' E 121°21'46811856.4
2017-Jan-16 09:31N 24°25' E 118°02'802844.9
2017-Jan-16 08:34N 37°27' E 121°35'373268280.3
2017-Jan-16 08:33N 31°15' E 122°05'38398411.4
2017-Jan-16 08:33N 37°36' E 121°23'3577435.9
2017-Jan-16 08:30N 31°39' E 121°21'730936444.3
2017-Jan-16 08:18N 05°16' W 004°02'72809757.0
2017-Jan-16 07:34N 37°27' E 121°35'373670700.8
2017-Jan-16 07:33N 31°15' E 122°05'383688868.9
2017-Jan-16 07:33N 37°36' E 121°23'72681868985.7
2017-Jan-16 07:33N 05°16' W 004°02'716370263.0
2017-Jan-16 07:27N 24°26' E 117°53'4705603.9
2017-Jan-16 07:22N 31°39' E 121°21'26945.7
2017-Jan-16 07:20N 31°19' E 121°41'367469.5
2017-Jan-16 06:34N 37°27' E 121°35'373121948.7
2017-Jan-16 06:33N 31°15' E 122°05'383688868.9
2017-Jan-16 06:33N 37°36' E 121°23'35780399.1
2017-Jan-16 06:33N 31°39' E 121°21'7309159469.7
2017-Jan-16 06:30N 05°16' W 004°02'72757691.2
2017-Jan-16 05:34N 37°32' E 121°30'71286.3
2017-Jan-16 05:33N 37°36' E 121°23'3831377737.8
2017-Jan-16 05:33N 31°15' E 122°05'452691.8
2017-Jan-16 05:32N 31°39' E 121°21'360368.1
2017-Jan-16 04:34N 37°39' E 121°28'3851385929.8
2017-Jan-16 04:33N 31°15' E 122°05'38351027.3
2017-Jan-16 04:33N 37°36' E 121°23'35718118.1
2017-Jan-16 04:32N 31°39' E 121°21'26353.7
2017-Jan-16 04:27N 31°19' E 121°41'387429.0
2017-Jan-16 03:33N 37°46' E 121°31'393157054.5
2017-Jan-16 03:33N 31°15' E 122°05'452018.9
2017-Jan-16 03:32N 31°39' E 121°21'26410.0
2017-Jan-16 03:28N 31°19' E 121°41'75216.3
2017-Jan-16 03:07N 31°59' E 120°26'95167.1
2017-Jan-16 02:33N 31°15' E 122°05'46688255.1
2017-Jan-16 02:33N 24°26' E 117°53'810972355.8
2017-Jan-16 02:33N 37°36' E 121°25'37710933.9
2017-Jan-16 02:31N 31°19' E 121°41'241841.6
2017-Jan-16 02:30N 31°37' E 121°23'5317261.6
2017-Jan-16 02:30N 31°59' E 120°26'51593.5
2017-Jan-16 02:25N 31°39' E 121°21'9189.0
2017-Jan-16 02:22N 31°40' E 121°11'5365.7
2017-Jan-16 01:33N 31°15' E 122°05'382229440.0
2017-Jan-16 01:33N 37°36' E 121°25'37725107.5
2017-Jan-16 01:32N 31°19' E 121°41'26622.0
2017-Jan-16 01:30N 31°39' E 121°21'4547.6
2017-Jan-16 00:33N 31°15' E 122°05'38291776.0
2017-Jan-16 00:33N 37°36' E 121°25'37721867.8
2017-Jan-16 00:32N 31°19' E 121°41'26899.8
2017-Jan-16 00:30N 31°39' E 121°21'4547.2
2017-Jan-15 23:33N 31°15' E 122°05'38265552.2
2017-Jan-15 23:33N 37°36' E 121°25'37779750.7
2017-Jan-15 23:33N 31°19' E 121°41'7529911.6
2017-Jan-15 23:33N 31°58' E 120°26'513645.9
2017-Jan-15 23:32N 31°39' E 121°21'4546.1
2017-Jan-15 22:33N 31°15' E 122°05'455569.3
2017-Jan-15 22:33N 31°39' E 121°21'470187962.3
2017-Jan-15 22:33N 24°26' E 117°53'46097376.3
2017-Jan-15 22:33N 31°19' E 121°41'37561360.4
2017-Jan-15 22:32N 37°34' E 121°25'354127422.5
2017-Jan-15 22:32N 31°40' E 121°11'42324.9
2017-Jan-15 22:24N 31°58' E 120°26'725622873.5
2017-Jan-15 22:05N 05°16' W 004°02'727013768.4
2017-Jan-15 21:34N 37°34' E 121°25'381274141.3
2017-Jan-15 21:33N 31°15' E 122°05'211207.0
2017-Jan-15 21:32N 31°19' E 121°41'262317.0
2017-Jan-15 21:32N 31°39' E 121°21'7309114402.2
2017-Jan-15 21:28N 05°16' W 004°02'7256967462.6
2017-Jan-15 21:27N 31°58' E 120°26'101273.5
2017-Jan-15 21:05N 31°04' E 122°05'4 8.3
2017-Jan-15 20:34N 31°05' E 122°00'390280767.7
2017-Jan-15 20:33N 37°34' E 121°25'381171341.0
2017-Jan-15 20:33N 31°15' E 122°05'532169.7
2017-Jan-15 20:32N 31°40' E 121°11'9309.9
2017-Jan-15 20:30N 31°39' E 121°21'512641.7
2017-Jan-15 20:29N 31°58' E 120°26'40636556.9
2017-Jan-15 20:28N 38°39' E 121°49'4408077.4
2017-Jan-15 20:25N 31°19' E 121°41'7330277767.7
2017-Jan-15 20:24N 05°16' W 004°02'73418800.6
2017-Jan-15 19:33N 31°10' E 121°52'147255.1
2017-Jan-15 19:33N 31°20' E 121°40'374336878.9
2017-Jan-15 19:33N 37°34' E 121°25'33927743.8
2017-Jan-15 19:33N 31°59' E 120°26'9513711.6
2017-Jan-15 19:32N 31°15' E 122°05'4527498.5
2017-Jan-15 19:29N 38°47' E 121°52'42942882.3
2017-Jan-15 19:28N 31°39' E 121°21'9236.6
2017-Jan-15 19:26N 31°40' E 121°11'354406.9
2017-Jan-15 18:34N 37°34' E 121°25'379341364.4
2017-Jan-15 18:33N 31°15' E 121°46'2410722.9
2017-Jan-15 18:33N 31°02' E 122°09'1346680.5
2017-Jan-15 18:33N 31°15' E 122°05'3155270.2
2017-Jan-15 18:33N 31°25' E 121°31'652601.8
2017-Jan-15 18:32N 31°59' E 120°26'511878.3
2017-Jan-15 18:30N 31°39' E 121°21'730926312666.3
2017-Jan-15 18:30N 05°16' W 004°02'73537788.2
2017-Jan-15 17:33N 31°15' E 122°05'1037546.5
2017-Jan-15 17:33N 31°05' E 122°01'39052035.8
2017-Jan-15 17:33N 37°34' E 121°25'36362208.5
2017-Jan-15 17:33N 31°31' E 121°22'8191.5
2017-Jan-15 17:30N 31°39' E 121°21'730995331.3
2017-Jan-15 17:26N 05°16' W 004°02'725658175.1
2017-Jan-15 17:18N 31°59' E 120°26'91122.7
2017-Jan-15 16:34N 31°07' E 121°55'123462.5
2017-Jan-15 16:33N 31°15' E 122°05'38150761.3
2017-Jan-15 16:33N 37°34' E 121°25'356426610.6
2017-Jan-15 16:33N 31°39' E 121°21'7220.8
2017-Jan-15 16:31N 31°40' E 121°12'44339.9
2017-Jan-15 16:23N 31°59' E 120°26'42713.4
2017-Jan-15 16:20N 31°40' E 121°11'354461.0
2017-Jan-15 15:34N 37°34' E 121°25'381685234.8
2017-Jan-15 15:33N 31°15' E 122°05'9512242.5
2017-Jan-15 15:33N 31°59' E 120°26'511349.6
2017-Jan-15 15:31N 31°39' E 121°21'945.8
2017-Jan-15 15:20N 31°40' E 121°11'3748.1
2017-Jan-15 14:33N 31°17' E 121°44'1821805.7
2017-Jan-15 14:33N 31°15' E 122°05'381342621.3
2017-Jan-15 14:33N 37°34' E 121°25'3558203.6
2017-Jan-15 14:31N 31°39' E 121°21'4702857.5
2017-Jan-15 14:21N 24°26' E 117°53'4682633.5
2017-Jan-15 14:10N 31°40' E 121°11'5386.5
2017-Jan-15 13:33N 31°15' E 122°05'38197893.3
2017-Jan-15 13:33N 37°34' E 121°25'35514542.8
2017-Jan-15 13:32N 31°39' E 121°21'4702606.6
2017-Jan-15 13:21N 24°26' E 117°53'8091015.3
2017-Jan-15 12:33N 37°34' E 121°25'381114210.7
2017-Jan-15 12:33N 31°15' E 122°05'454038.0
2017-Jan-15 12:32N 31°39' E 121°21'51199.7
2017-Jan-15 12:17N 31°58' E 120°26'95131.1
2017-Jan-15 11:33N 31°15' E 122°05'4511538.1
2017-Jan-15 11:33N 31°39' E 121°21'35585317.7
2017-Jan-15 11:33N 37°34' E 121°25'809727970.5
2017-Jan-15 11:33N 24°26' E 117°53'8901976.3
2017-Jan-15 11:06N 38°52' E 121°56'81148.8
2017-Jan-15 10:33N 37°34' E 121°25'381195802.0
2017-Jan-15 10:33N 31°15' E 122°05'456730.6
2017-Jan-15 10:33N 31°39' E 121°21'42917541.6
2017-Jan-15 10:31N 38°46' E 121°55'8 8.5
2017-Jan-15 09:34N 38°39' E 121°52'6860997.1
2017-Jan-15 09:33N 37°34' E 121°25'381685457.7
2017-Jan-15 09:33N 31°15' E 122°05'454751.3
2017-Jan-15 09:33N 31°39' E 121°21'4545.3
2017-Jan-15 08:33N 31°15' E 122°05'4516154.5
2017-Jan-15 08:33N 31°39' E 121°21'361144256.9
2017-Jan-15 08:33N 37°39' E 121°28'361362.9
2017-Jan-15 07:33N 31°39' E 121°21'4511529.4
2017-Jan-15 07:33N 31°15' E 122°05'39237124.7
2017-Jan-15 07:33N 37°45' E 121°29'392395.9
2017-Jan-15 06:33N 31°15' E 122°04'39525414.1
2017-Jan-15 06:32N 37°49' E 121°30'3715778.4
2017-Jan-15 06:28N 31°39' E 121°21'720.8
2017-Jan-15 06:09N 31°40' E 121°13'2643.5
2017-Jan-15 05:33N 31°24' E 121°37'222524.4
2017-Jan-15 05:33N 31°37' E 121°17'37467305.3
2017-Jan-15 05:33N 37°51' E 121°31'3728647.4
2017-Jan-15 05:30N 31°39' E 121°21'723.9
2017-Jan-15 05:12N 31°40' E 121°12'3757.2
2017-Jan-15 04:33N 31°16' E 121°45'33544.4
2017-Jan-15 04:33N 31°19' E 121°43'196090.2
2017-Jan-15 04:33N 31°15' E 122°04'442471.4
2017-Jan-15 04:32N 31°39' E 121°21'61629.0
2017-Jan-15 04:32N 31°32' E 121°22'414.5
2017-Jan-15 04:15N 31°35' E 121°18'4160.3
2017-Jan-15 03:33N 31°08' E 121°55'103408.2
2017-Jan-15 03:33N 31°15' E 122°04'40875.9
2017-Jan-15 03:31N 31°32' E 121°22'7356.0
2017-Jan-15 03:29N 31°39' E 121°21'5457.9
2017-Jan-15 02:33N 31°01' E 122°07'4580103.2
2017-Jan-15 02:33N 31°29' E 121°26'354559.1
2017-Jan-15 02:33N 31°15' E 122°04'916277.1
2017-Jan-15 02:32N 32°01' E 120°33'4721043.2
2017-Jan-15 02:32N 31°39' E 121°21'4445.1
2017-Jan-15 01:33N 31°15' E 122°04'392108434.4
2017-Jan-15 01:33N 37°46' E 121°31'3511263278.5
2017-Jan-15 01:33N 31°59' E 120°27'5011270.7
2017-Jan-15 01:33N 31°39' E 121°21'4703121.1
2017-Jan-15 01:24N 24°26' E 117°53'4627810.8
2017-Jan-15 01:20N 31°27' E 121°30'1418.0
2017-Jan-15 00:33N 31°39' E 121°21'363163282.8
2017-Jan-15 00:33N 37°41' E 121°29'387232440.3
2017-Jan-15 00:33N 31°15' E 122°04'30447.8
2017-Jan-15 00:29N 31°25' E 121°32'6526141.5
2017-Jan-15 00:29N 31°58' E 120°25'4725373.3
2017-Jan-15 00:24N 24°26' E 117°53'812966.9
2017-Jan-14 23:33N 37°37' E 121°27'383106134.2
2017-Jan-14 23:33N 31°15' E 122°04'951374.3
2017-Jan-14 23:29N 31°58' E 120°25'511717.5
2017-Jan-14 23:27N 31°39' E 121°21'355396.0
2017-Jan-14 22:33N 37°34' E 121°25'380684687.9
2017-Jan-14 22:33N 31°15' E 122°04'44795.0
2017-Jan-14 22:30N 31°39' E 121°21'512964.0
2017-Jan-14 22:29N 31°58' E 120°25'7255102832.3
2017-Jan-14 22:25N 05°16' W 004°02'732197609.8
2017-Jan-14 22:20N 31°15' E 121°30'2531.9
2017-Jan-14 21:33N 31°39' E 121°21'3551279732.7
2017-Jan-14 21:33N 37°34' E 121°25'380684687.9
2017-Jan-14 21:33N 31°15' E 122°04'952350.7
2017-Jan-14 21:31N 31°58' E 120°25'339354.1
2017-Jan-14 20:33N 37°34' E 121°25'380456458.6
2017-Jan-14 20:33N 31°15' E 122°04'445859.9
2017-Jan-14 20:33N 31°39' E 121°21'504536.8
2017-Jan-14 20:32N 31°58' E 120°26'4721210.4
2017-Jan-14 20:09N 24°26' E 117°53'8091368.9
2017-Jan-14 19:33N 37°34' E 121°25'380684698.7
2017-Jan-14 19:33N 31°15' E 122°04'46657792.1
2017-Jan-14 19:33N 24°26' E 117°53'4709557.4
2017-Jan-14 19:30N 31°39' E 121°21'47215.1
2017-Jan-14 19:17N 31°05' E 121°60'390540.7
2017-Jan-14 18:33N 37°34' E 121°25'380114116.4
2017-Jan-14 18:33N 31°15' E 122°04'12293.8
2017-Jan-14 18:31N 31°03' E 122°04'516585.7
2017-Jan-14 18:30N 31°39' E 121°21'7309137045.0
2017-Jan-14 18:27N 05°16' W 004°02'72778146.1
2017-Jan-14 17:34N 38°40' E 121°42'6848602.7
2017-Jan-14 17:33N 37°34' E 121°25'380124488.7
2017-Jan-14 17:33N 31°15' E 122°04'44541.8
2017-Jan-14 17:28N 31°39' E 121°21'50346.3
2017-Jan-14 17:20N 31°04' E 122°02'464601.7
2017-Jan-14 16:33N 38°48' E 121°44'7590432.6
2017-Jan-14 16:33N 37°34' E 121°25'35579983.3
2017-Jan-14 16:33N 31°39' E 121°21'449888.6
2017-Jan-14 16:33N 31°15' E 122°04'17320.4
2017-Jan-14 16:30N 30°58' E 122°11'501048.3
2017-Jan-14 16:27N 31°30' E 121°25'1010.7
2017-Jan-14 15:34N 31°39' E 121°21'357257148.8
2017-Jan-14 15:33N 37°36' E 121°25'382687757.8
2017-Jan-14 15:33N 31°15' E 122°04'323653.3
2017-Jan-14 15:33N 31°27' E 121°29'369372.6
2017-Jan-14 14:33N 37°36' E 121°25'382114629.9
2017-Jan-14 14:33N 31°15' E 122°04'4426369.6
2017-Jan-14 14:33N 31°39' E 121°21'172715.8
2017-Jan-14 14:33N 31°24' E 121°32'372376.1
2017-Jan-14 13:33N 37°36' E 121°25'3821375515.6
2017-Jan-14 13:33N 31°15' E 122°04'443366.1
2017-Jan-14 13:33N 31°39' E 121°21'2479.1
2017-Jan-14 13:14N 31°17' E 121°34'379557.8
2017-Jan-14 12:33N 37°36' E 121°25'382343884.3
2017-Jan-14 12:33N 31°15' E 122°04'30888.5
2017-Jan-14 12:31N 31°14' E 121°29'25518.8
2017-Jan-14 12:28N 31°39' E 121°21'357388.4
2017-Jan-14 11:33N 37°36' E 121°25'38232750.9
2017-Jan-14 11:33N 31°15' E 122°04'4422600.9
2017-Jan-14 11:32N 31°39' E 121°21'357363.1
2017-Jan-14 10:33N 37°36' E 121°25'382687768.6
2017-Jan-14 10:33N 31°15' E 122°04'441566.4
2017-Jan-14 10:32N 31°39' E 121°21'357367.8
2017-Jan-14 09:33N 37°36' E 121°25'382114626.3
2017-Jan-14 09:33N 31°15' E 122°04'441883.4
2017-Jan-14 09:32N 31°39' E 121°21'357366.9
2017-Jan-14 08:33N 37°36' E 121°25'382105808.9
2017-Jan-14 08:33N 31°15' E 122°04'448789.2
2017-Jan-14 08:33N 31°39' E 121°21'28119.0
2017-Jan-14 08:19N 31°54' E 120°53'342454.9
2017-Jan-14 07:33N 37°36' E 121°25'382687757.8
2017-Jan-14 07:33N 31°15' E 122°04'44888.8
2017-Jan-14 07:30N 31°39' E 121°21'2062.3
2017-Jan-14 07:11N 31°46' E 120°59'350556.0
2017-Jan-14 06:33N 37°36' E 121°25'382687757.8
2017-Jan-14 06:33N 31°15' E 122°04'442109.4
2017-Jan-14 06:32N 31°39' E 121°21'357365.2
2017-Jan-14 05:33N 37°36' E 121°25'382458505.2
2017-Jan-14 05:33N 31°15' E 122°04'416175.8
2017-Jan-14 05:33N 31°37' E 121°23'731115075.2
2017-Jan-14 05:04N 05°16' W 004°02'726914316.2
2017-Jan-14 04:33N 37°36' E 121°25'382105810.5
2017-Jan-14 04:33N 31°15' E 122°04'382383.5
2017-Jan-14 03:33N 37°36' E 121°25'382458505.2
2017-Jan-14 03:33N 31°15' E 122°04'276888.0
2017-Jan-14 03:33N 31°24' E 121°35'37293.2
2017-Jan-13 23:33N 37°36' E 121°25'382687768.6
2017-Jan-13 23:33N 31°15' E 122°04'623132.3
2017-Jan-13 23:32N 31°45' E 121°01'4716840.1
2017-Jan-13 23:32N 31°19' E 121°47'46212687.9
2017-Jan-13 23:30N 24°26' E 117°53'810861.5
2017-Jan-13 22:33N 37°36' E 121°25'382458519.5
2017-Jan-13 22:33N 31°15' E 122°04'162830.0
2017-Jan-13 22:33N 31°19' E 121°47'4628656.8
2017-Jan-13 22:30N 24°26' E 117°53'4647101.5
2017-Jan-13 22:26N 31°07' E 122°17'392447.5
2017-Jan-13 21:33N 37°36' E 121°25'3851385957.2
2017-Jan-13 21:33N 31°12' E 122°08'47363.1
2017-Jan-13 21:33N 31°15' E 122°04'1628299.9
2017-Jan-13 21:33N 31°19' E 121°47'3716514.5
2017-Jan-13 21:33N 31°41' E 121°12'730025842.1
2017-Jan-13 21:16N 05°16' W 004°02'734410279.1
2017-Jan-13 20:33N 31°16' E 121°55'813968.7
2017-Jan-13 20:33N 31°15' E 122°04'382229256.2
2017-Jan-13 20:33N 37°36' E 121°25'377226326.5
2017-Jan-13 20:33N 31°19' E 121°47'344064.9
2017-Jan-13 20:33N 31°38' E 121°14'73031011138.0
2017-Jan-13 20:32N 05°16' W 004°02'72697417.8
2017-Jan-13 19:33N 37°36' E 121°25'3781359512.2
2017-Jan-13 19:33N 31°18' E 121°45'175583.5
2017-Jan-13 19:33N 31°15' E 122°04'495502.1
2017-Jan-13 19:33N 31°38' E 121°14'341340.1
2017-Jan-13 19:31N 31°19' E 121°47'73351886215.0
2017-Jan-13 19:31N 05°16' W 004°02'7163106123.3
2017-Jan-13 19:27N 24°26' E 117°53'810909.3
2017-Jan-13 18:33N 37°36' E 121°25'382458512.4
2017-Jan-13 18:33N 31°15' E 122°04'162572.7
2017-Jan-13 18:33N 31°19' E 121°47'343694.7
2017-Jan-13 18:32N 31°38' E 121°14'358363.4
2017-Jan-13 17:33N 37°36' E 121°25'382687768.6
2017-Jan-13 17:33N 31°15' E 122°04'493088.7
2017-Jan-13 17:32N 31°38' E 121°14'3460967.9
2017-Jan-13 17:32N 31°19' E 121°47'27104.1
2017-Jan-13 17:17N 30°57' E 122°05'735542228.4
2017-Jan-13 17:07N 05°16' W 004°02'726913130.9
2017-Jan-13 16:33N 37°36' E 121°25'382687768.6
2017-Jan-13 16:33N 31°15' E 122°04'47168526.5
2017-Jan-13 16:33N 31°37' E 121°16'5323792.1
2017-Jan-13 16:33N 31°02' E 122°02'222782.2
2017-Jan-13 16:33N 31°19' E 121°47'2 6.2
2017-Jan-13 16:10N 31°18' E 121°44'813.3
2017-Jan-13 15:33N 31°11' E 121°50'3238362.8
2017-Jan-13 15:33N 31°32' E 121°22'4020708.9
2017-Jan-13 15:33N 31°06' E 121°58'391127851.0
2017-Jan-13 15:33N 37°36' E 121°25'37710951.1
2017-Jan-13 15:31N 31°19' E 121°47'1212.5
2017-Jan-13 14:33N 31°08' E 121°53'1220890.3
2017-Jan-13 14:33N 31°15' E 122°04'3360276.0
2017-Jan-13 14:33N 31°28' E 121°28'3822828.2
2017-Jan-13 14:33N 31°04' E 122°03'202170.2
2017-Jan-13 14:33N 31°19' E 121°47'377381.8
2017-Jan-13 13:33N 37°36' E 121°25'38381197.1
2017-Jan-13 13:33N 31°13' E 121°48'1812817.7
2017-Jan-13 13:33N 31°25' E 121°33'1347196.4
2017-Jan-13 13:33N 31°19' E 121°47'1614151.3
2017-Jan-13 13:33N 31°15' E 122°04'21340.8
2017-Jan-13 13:29N 30°55' E 122°12'4143.9
2017-Jan-13 12:34N 31°23' E 121°37'373335957.8
2017-Jan-13 12:33N 37°36' E 121°25'376123144.2
2017-Jan-13 12:33N 31°20' E 121°41'206114.5
2017-Jan-13 12:33N 31°15' E 122°04'16665.9
2017-Jan-13 12:32N 31°19' E 121°47'4621075.1
2017-Jan-13 12:06N 24°26' E 117°53'8101499.0
2017-Jan-13 11:33N 37°36' E 121°25'382687779.3
2017-Jan-13 11:33N 31°15' E 122°04'2125023.6
2017-Jan-13 11:33N 31°21' E 121°41'53702.8
2017-Jan-13 11:33N 31°19' E 121°47'4622941.7
2017-Jan-13 11:24N 24°26' E 117°53'716327818.8
2017-Jan-13 11:08N 05°16' W 004°02'726912467.8
2017-Jan-13 10:33N 37°36' E 121°25'382687779.3
2017-Jan-13 10:33N 31°15' E 122°04'1864447.1
2017-Jan-13 10:33N 31°18' E 121°44'31534.5
2017-Jan-13 10:33N 31°19' E 121°47'4628107.5
2017-Jan-13 10:30N 24°26' E 117°53'458488.3
2017-Jan-13 09:34N 31°15' E 121°46'381274177.7
2017-Jan-13 09:33N 37°36' E 121°25'382687768.6
2017-Jan-13 09:33N 31°15' E 122°04'73521018014.7
2017-Jan-13 09:33N 05°16' W 004°02'73351015658.1
2017-Jan-13 09:33N 31°19' E 121°47'4624917.3
2017-Jan-13 09:27N 24°26' E 117°53'810909.3
2017-Jan-13 08:33N 37°36' E 121°25'382687768.6
2017-Jan-13 08:33N 31°15' E 122°04'1315999.1
2017-Jan-13 08:33N 31°13' E 121°49'7374.0
2017-Jan-13 08:32N 31°19' E 121°47'1616.0
2017-Jan-13 07:33N 31°15' E 122°04'1141230.0
2017-Jan-13 07:33N 31°10' E 121°52'38686946.0
2017-Jan-13 07:33N 37°36' E 121°25'37728891.4
2017-Jan-13 07:32N 31°19' E 121°47'375382.3
2017-Jan-13 06:33N 37°34' E 121°25'387348678.9
2017-Jan-13 06:33N 31°07' E 121°57'10740.6
2017-Jan-13 06:33N 31°15' E 122°04'162021.4
2017-Jan-13 06:32N 31°19' E 121°47'733516745.1
2017-Jan-13 06:06N 05°16' W 004°02'727013463.8
2017-Jan-13 05:33N 37°34' E 121°25'380684004.6
2017-Jan-13 05:33N 31°15' E 122°04'1037660.7
2017-Jan-13 05:33N 31°05' E 122°04'7353827197.9
2017-Jan-13 05:33N 05°16' W 004°02'7335266737.1
2017-Jan-13 05:31N 31°19' E 121°47'375389.8
2017-Jan-13 04:33N 37°34' E 121°25'380105231.5
2017-Jan-13 04:33N 31°15' E 122°04'73521203101.6
2017-Jan-13 04:33N 05°16' W 004°02'733526406964.6
2017-Jan-13 04:33N 31°19' E 121°47'26972.9
2017-Jan-13 04:31N 31°02' E 122°11'393408.2
2017-Jan-13 03:33N 37°34' E 121°25'380105234.3
2017-Jan-13 03:33N 31°15' E 122°04'163144.4
2017-Jan-13 03:33N 31°19' E 121°47'375378.3
2017-Jan-13 02:33N 37°34' E 121°25'3801368009.3
2017-Jan-13 02:33N 31°15' E 122°04'16775.3
2017-Jan-13 02:32N 31°19' E 121°47'3 2.8
2017-Jan-13 01:33N 31°16' E 121°45'3781359336.9
2017-Jan-13 01:33N 37°34' E 121°25'809485693.4
2017-Jan-13 01:33N 24°24' E 117°57'465279259.1
2017-Jan-13 01:33N 31°15' E 122°04'16255.0
2017-Jan-13 01:30N 31°19' E 121°47'1111.8
2017-Jan-13 00:33N 31°09' E 121°53'1119773.4
2017-Jan-13 00:33N 31°15' E 122°04'46297818.4
2017-Jan-13 00:33N 24°24' E 118°05'459330463.4
2017-Jan-13 00:33N 31°20' E 121°45'2121.3
2017-Jan-12 23:33N 31°05' E 122°01'390701984.2
2017-Jan-12 23:33N 37°34' E 121°25'3801368009.3
2017-Jan-12 23:33N 31°15' E 122°04'19370.0
2017-Jan-12 23:30N 31°22' E 121°43'4631795.5
2017-Jan-12 23:15N 24°26' E 117°53'8081171.2
2017-Jan-12 22:33N 37°34' E 121°25'380684004.6
2017-Jan-12 22:33N 31°15' E 122°04'46654061.1
2017-Jan-12 22:33N 24°26' E 117°53'463833120.7
2017-Jan-12 22:33N 31°22' E 121°43'1919.2
2017-Jan-12 21:33N 31°15' E 122°04'383172129.8
2017-Jan-12 21:33N 37°36' E 121°27'37528120.9
2017-Jan-12 21:32N 31°22' E 121°43'733256161.0
2017-Jan-12 21:25N 05°16' W 004°02'72728521.7
2017-Jan-12 20:33N 37°41' E 121°28'387696787.8
2017-Jan-12 20:33N 31°15' E 122°04'196221.9
2017-Jan-12 20:33N 31°22' E 121°43'7332206215.5
2017-Jan-12 20:31N 05°16' W 004°02'72727568.9
2017-Jan-12 19:33N 37°45' E 121°29'3911409377.4
2017-Jan-12 19:33N 31°15' E 122°04'193259.1
2017-Jan-12 19:33N 31°22' E 121°43'389391.1
2017-Jan-12 18:33N 37°50' E 121°30'396356408.3
2017-Jan-12 18:33N 31°15' E 122°04'1911406.9
2017-Jan-12 18:33N 31°22' E 121°43'29271.3
2017-Jan-12 18:27N 31°03' E 122°10'735920161.2
2017-Jan-12 18:05N 05°16' W 004°02'727413861.8
2017-Jan-12 17:33N 37°54' E 121°32'393353726.2
2017-Jan-12 17:33N 31°22' E 121°43'199777.3
2017-Jan-12 17:33N 31°15' E 122°04'102337.1
2017-Jan-12 17:33N 31°05' E 122°01'2222.6
2017-Jan-12 16:33N 31°22' E 121°43'1628401.8
2017-Jan-12 16:33N 31°08' E 121°53'1213804.4
2017-Jan-12 16:33N 31°15' E 122°04'735172305.6
2017-Jan-12 16:27N 05°17' W 004°01'73378171.9
2017-Jan-12 15:33N 31°13' E 121°48'144990.3
2017-Jan-12 15:33N 31°15' E 122°04'19510.8
2017-Jan-12 15:31N 31°22' E 121°43'5 5.1
2017-Jan-12 14:33N 31°17' E 121°44'1761628.0
2017-Jan-12 14:33N 31°15' E 122°04'19912.6
2017-Jan-12 14:32N 31°22' E 121°43'0 0.0
2017-Jan-12 13:34N 31°22' E 121°43'1968441.3
2017-Jan-12 13:33N 31°15' E 122°04'2588768.8
2017-Jan-12 13:33N 31°23' E 121°37'2524.6
2017-Jan-12 12:33N 31°15' E 122°04'19184.0
2017-Jan-12 12:27N 31°22' E 121°43'1921.1
2017-Jan-12 11:33N 31°15' E 122°04'198555.2
2017-Jan-12 11:33N 31°22' E 121°43'4382342.7
2017-Jan-12 11:22N 38°40' E 121°50'445550.5
2017-Jan-12 10:33N 31°15' E 122°04'19575.1
2017-Jan-12 10:31N 31°22' E 121°43'46317917.4
2017-Jan-12 10:30N 24°26' E 117°53'88466281.9
2017-Jan-12 10:29N 38°46' E 121°52'451484.5
2017-Jan-12 09:33N 31°15' E 122°04'192975.7
2017-Jan-12 09:33N 31°22' E 121°43'3085.0
2017-Jan-12 09:11N 30°59' E 121°20'4165.1
2017-Jan-12 08:33N 31°15' E 122°04'191140.7
2017-Jan-12 08:32N 31°22' E 121°43'302324.2
2017-Jan-12 08:32N 30°59' E 121°20'4142.5
2017-Jan-12 07:33N 31°15' E 122°04'7352853818.2
2017-Jan-12 07:33N 05°16' W 004°02'73132632755.6
2017-Jan-12 07:33N 30°59' E 121°20'309932.0
2017-Jan-12 07:33N 31°22' E 121°43'18353.7
2017-Jan-12 07:29N 31°29' E 121°24'3739.7
2017-Jan-12 06:33N 31°15' E 122°04'191267.4
2017-Jan-12 06:33N 31°22' E 121°43'22280.5
2017-Jan-12 06:28N 31°32' E 121°20'4145.3
2017-Jan-12 05:33N 31°15' E 122°04'7352287698.1
2017-Jan-12 05:32N 05°16' W 004°02'7332280803.8
2017-Jan-12 05:30N 31°22' E 121°43'2380.9
2017-Jan-12 05:13N 31°32' E 121°20'1725.6
2017-Jan-12 04:33N 31°23' E 121°37'2529652.3
2017-Jan-12 04:33N 31°15' E 122°04'192013.0
2017-Jan-12 04:33N 31°22' E 121°43'232106.6
2017-Jan-12 04:32N 31°32' E 121°20'2324.0
2017-Jan-12 03:33N 31°19' E 121°43'193265.1
2017-Jan-12 03:33N 31°15' E 122°04'114935.7
2017-Jan-12 03:33N 31°04' E 122°04'472101.0
2017-Jan-12 03:31N 31°32' E 121°20'231244.8
2017-Jan-12 03:30N 31°22' E 121°43'4551865.9
2017-Jan-12 03:16N 38°56' E 121°56'470667.0
2017-Jan-12 02:33N 31°06' E 121°57'1012586.8
2017-Jan-12 02:33N 31°15' E 122°04'19769.0
2017-Jan-12 02:32N 31°22' E 121°43'449807591.5
2017-Jan-12 02:32N 38°50' E 121°55'43915348.0
2017-Jan-12 02:30N 31°32' E 121°20'25348.8
2017-Jan-12 02:26N 31°18' E 121°44'1011.3
2017-Jan-12 01:33N 31°10' E 121°52'416095.2
2017-Jan-12 01:33N 31°08' E 121°56'455545868.5
2017-Jan-12 01:33N 38°43' E 121°53'448201468.3
2017-Jan-12 01:33N 31°15' E 122°04'192534.9
2017-Jan-12 01:33N 31°22' E 121°43'27104.1
2017-Jan-12 01:17N 31°36' E 121°17'4562.1
2017-Jan-12 00:33N 31°15' E 122°04'113678.6
2017-Jan-12 00:33N 31°04' E 122°03'1413.1
2017-Jan-12 00:33N 31°03' E 122°03'25430.2
2017-Jan-12 00:30N 31°22' E 121°43'5 5.2
2017-Jan-11 23:33N 31°19' E 121°48'156538.7
2017-Jan-11 23:33N 31°15' E 122°04'202732.4
2017-Jan-11 23:33N 30°56' E 122°12'2019.9
2017-Jan-11 22:33N 31°15' E 122°04'0 0.0
2017-Jan-11 21:33N 31°15' E 122°04'391939.0
2017-Jan-11 21:32N 31°30' E 121°23'953.9
2017-Jan-11 21:23N 31°33' E 121°32'3339.8
2017-Jan-11 20:33N 31°15' E 122°04'4048327.1
2017-Jan-11 20:33N 31°36' E 121°24'731354958.6
2017-Jan-11 20:25N 05°16' W 004°02'73528394.6
2017-Jan-11 19:33N 31°15' E 122°04'443167.7
2017-Jan-11 19:32N 31°39' E 121°21'47013113.1
2017-Jan-11 19:30N 24°26' E 117°53'716394461.2
2017-Jan-11 19:25N 05°16' W 004°02'73528494.3
2017-Jan-11 18:33N 31°15' E 122°04'443369.9
2017-Jan-11 18:33N 31°39' E 121°21'4444.6
2017-Jan-11 17:33N 31°15' E 122°04'3961426185.8
2017-Jan-11 17:33N 37°50' E 121°32'37226773.8
2017-Jan-11 17:33N 31°39' E 121°21'364369.2
2017-Jan-11 16:33N 37°42' E 121°30'38973613.0
2017-Jan-11 16:33N 31°15' E 122°04'45243991.3
2017-Jan-11 16:32N 38°47' E 121°46'42949799.7
2017-Jan-11 16:32N 31°39' E 121°21'32790.5
2017-Jan-11 16:30N 31°15' E 121°46'1516.3
2017-Jan-11 15:33N 31°15' E 122°04'103024.1
2017-Jan-11 15:33N 31°08' E 121°56'432354.5
2017-Jan-11 15:32N 31°39' E 121°21'357365.1
2017-Jan-11 14:33N 37°36' E 121°25'38247432.3
2017-Jan-11 14:33N 31°15' E 122°04'141577.1
2017-Jan-11 14:32N 31°01' E 122°08'5511570.5
2017-Jan-11 14:32N 31°39' E 121°21'25319.2
2017-Jan-11 14:27N 31°14' E 121°29'382424.7
2017-Jan-11 13:33N 37°36' E 121°25'357321436.4
2017-Jan-11 13:33N 31°39' E 121°21'4410559.0
2017-Jan-11 13:33N 31°15' E 122°04'382384.1
2017-Jan-11 12:33N 37°36' E 121°25'382152839.8
2017-Jan-11 12:33N 31°15' E 122°04'4412183.5
2017-Jan-11 12:33N 31°39' E 121°21'4444.3
2017-Jan-11 11:33N 31°15' E 122°04'4439596.2
2017-Jan-11 11:33N 31°39' E 121°21'357142860.6
2017-Jan-11 11:33N 37°36' E 121°25'382383.5
2017-Jan-11 10:33N 31°15' E 122°04'382458519.5
2017-Jan-11 10:33N 37°36' E 121°25'357214290.9
2017-Jan-11 10:33N 31°39' E 121°21'0 0.0
2017-Jan-11 09:34N 31°39' E 121°21'357428574.7
2017-Jan-11 09:33N 37°36' E 121°25'382343884.3
2017-Jan-11 09:33N 31°15' E 122°04'291024.1
2017-Jan-11 09:32N 31°24' E 121°32'372383.2
2017-Jan-11 08:33N 37°36' E 121°25'382458512.4
2017-Jan-11 08:33N 31°15' E 122°04'446886.3
2017-Jan-11 08:33N 31°39' E 121°21'37122230.4
2017-Jan-11 08:32N 37°49' E 121°30'380839.3
2017-Jan-11 08:05N 31°29' E 121°25'372710.9
2017-Jan-11 07:33N 37°41' E 121°28'610216.6
2017-Jan-11 07:33N 37°36' E 121°25'35767669.7
2017-Jan-11 07:33N 31°39' E 121°21'4479192.5
2017-Jan-11 07:33N 31°15' E 122°04'381772.0
2017-Jan-11 07:32N 31°30' E 121°23'366376.2
2017-Jan-11 06:33N 37°36' E 121°25'382458519.5
2017-Jan-11 06:33N 31°15' E 122°04'382274897.3
2017-Jan-11 06:33N 37°35' E 121°25'363186798.9
2017-Jan-11 06:33N 31°32' E 121°20'6851.0
2017-Jan-11 06:33N 31°39' E 121°21'357361.5
2017-Jan-11 05:33N 37°36' E 121°25'056.4
2017-Jan-11 05:33N 37°36' E 121°25'3827353.2
2017-Jan-11 05:30N 31°15' E 122°04'442073.1
2017-Jan-11 05:29N 31°34' E 121°18'5560.5
2017-Jan-11 05:28N 31°39' E 121°21'3082.1
2017-Jan-11 05:06N 31°09' E 121°27'387704.7
2017-Jan-11 04:33N 37°36' E 121°25'0949.1
2017-Jan-11 04:33N 37°36' E 121°25'382687536.8
2017-Jan-11 04:33N 31°15' E 122°04'4532082.4
2017-Jan-11 04:33N 31°35' E 121°18'51104.7
2017-Jan-11 04:33N 31°39' E 121°21'284023.0
2017-Jan-11 04:33N 31°11' E 121°28'384389.7
2017-Jan-11 03:33N 37°36' E 121°25'092.2
2017-Jan-11 03:33N 37°36' E 121°25'3821375058.4
2017-Jan-11 03:33N 31°15' E 122°04'4413184.8
2017-Jan-11 03:33N 31°39' E 121°21'25287.5
2017-Jan-11 03:28N 31°15' E 121°30'23153.4
2017-Jan-11 03:19N 31°35' E 121°17'360476.6
2017-Jan-11 02:33N 37°36' E 121°25'382275111.7
2017-Jan-11 02:33N 31°15' E 122°04'382114619.6
2017-Jan-11 02:33N 37°36' E 121°25'3578514.3
2017-Jan-11 02:31N 31°39' E 121°21'449.3
2017-Jan-11 02:25N 31°36' E 121°17'360416.5
2017-Jan-11 01:33N 37°36' E 121°25'35971812.1
2017-Jan-11 01:33N 31°37' E 121°16'359161569.6
2017-Jan-11 01:33N 37°36' E 121°25'35736734.4
2017-Jan-11 01:32N 31°39' E 121°21'2057.4
2017-Jan-11 01:12N 31°21' E 121°31'375587.0
2017-Jan-11 00:33N 37°36' E 121°25'357142692.0
2017-Jan-11 00:33N 31°39' E 121°13'71262.3
2017-Jan-11 00:33N 31°39' E 121°21'357642851.2
2017-Jan-11 00:33N 37°36' E 121°25'3737983.5
2017-Jan-11 00:30N 31°23' E 121°30'38108.3
2017-Jan-11 00:09N 31°02' E 122°08'395669.7
2017-Jan-10 23:33N 37°36' E 121°25'0 6.1
2017-Jan-10 23:33N 37°36' E 121°25'35722167.3
2017-Jan-10 23:32N 31°39' E 121°21'519682.7
2017-Jan-10 23:32N 31°04' E 122°05'38135316.8
2017-Jan-10 23:32N 31°26' E 121°29'3233.5
2017-Jan-10 22:34N 31°06' E 121°59'391703807.4
2017-Jan-10 22:33N 37°36' E 121°25'36673248.1
2017-Jan-10 22:33N 31°29' E 121°24'9920.7
2017-Jan-10 22:33N 31°39' E 121°21'539114952.8
2017-Jan-10 22:11N 49°17' W 122°51'50918156.5
2017-Jan-10 21:33N 37°36' E 121°25'387174004.4
2017-Jan-10 21:33N 31°10' E 121°52'39762154.3
2017-Jan-10 21:33N 37°46' E 121°29'36812611.9
2017-Jan-10 21:31N 31°39' E 121°21'61128.6
2017-Jan-10 21:31N 31°33' E 121°19'363378.7
2017-Jan-10 20:33N 37°36' E 121°25'35986093.2
2017-Jan-10 20:33N 31°37' E 121°15'5257.4
2017-Jan-10 20:32N 31°39' E 121°21'357365.6
2017-Jan-10 19:33N 37°36' E 121°25'35579934.8
2017-Jan-10 19:33N 31°41' E 121°11'9303.7
2017-Jan-10 19:31N 31°39' E 121°21'7309907330.3
2017-Jan-10 19:31N 05°16' W 004°02'736529757.6
2017-Jan-10 19:16N 31°05' E 122°17'393552.8
2017-Jan-10 18:33N 37°36' E 121°25'388697857.5
2017-Jan-10 18:33N 31°10' E 122°12'5293599.1
2017-Jan-10 18:33N 31°39' E 121°21'539067369.0
2017-Jan-10 18:29N 49°18' W 122°53'53795853.8
2017-Jan-10 17:33N 31°14' E 122°02'3831377915.6
2017-Jan-10 17:33N 37°36' E 121°25'357160718.0
2017-Jan-10 17:33N 31°39' E 121°21'357357.9
2017-Jan-10 16:33N 37°36' E 121°25'3811370337.4
2017-Jan-10 16:33N 31°16' E 121°52'35127050.3
2017-Jan-10 16:33N 31°39' E 121°21'357357.4
2017-Jan-10 15:33N 37°36' E 121°25'3771358022.1
2017-Jan-10 15:33N 31°19' E 121°44'286262.6
2017-Jan-10 15:33N 31°39' E 121°21'4201425.9
2017-Jan-10 15:16N 38°38' E 121°41'6490.9
2017-Jan-10 14:33N 37°36' E 121°25'709734.8
2017-Jan-10 14:33N 38°45' E 121°43'42676746.9
2017-Jan-10 14:33N 31°39' E 121°21'357361.9
2017-Jan-10 13:33N 37°36' E 121°25'35775630.8
2017-Jan-10 13:33N 31°39' E 121°21'4431762.4
2017-Jan-10 13:33N 31°22' E 122°09'4444.3
2017-Jan-10 12:33N 31°39' E 121°21'357642862.0
2017-Jan-10 12:33N 37°36' E 121°25'37596325.9
2017-Jan-10 12:33N 31°22' E 122°01'1717.0
2017-Jan-10 11:33N 31°06' E 121°59'1812988.7
2017-Jan-10 11:33N 31°23' E 121°53'321809.7
2017-Jan-10 11:32N 31°39' E 121°21'2929.7
2017-Jan-10 10:33N 31°21' E 121°48'292106.2
2017-Jan-10 10:33N 30°59' E 122°10'582207.2
2017-Jan-10 10:31N 31°39' E 121°21'2526.3
2017-Jan-10 09:33N 31°20' E 121°41'25537.0
2017-Jan-10 09:31N 31°39' E 121°21'0 0.0
2017-Jan-10 08:34N 31°39' E 121°21'355355.0
2017-Jan-10 07:33N 37°34' E 121°26'355159898.7
2017-Jan-10 07:33N 31°39' E 121°21'1614114.5
2017-Jan-10 07:33N 31°25' E 121°30'7320142434.9
2017-Jan-10 07:30N 05°16' W 004°02'732377314.2
2017-Jan-10 07:24N 31°16' E 121°33'378444.4
2017-Jan-10 06:33N 37°34' E 121°26'363435526.2
2017-Jan-10 06:33N 31°31' E 121°21'8670.4
2017-Jan-10 06:33N 31°39' E 121°21'7309127113.9
2017-Jan-10 06:29N 05°16' W 004°02'7320123134.1
2017-Jan-10 06:26N 31°11' E 121°29'382439.3
2017-Jan-10 05:33N 37°34' E 121°26'363326424.1
2017-Jan-10 05:33N 31°31' E 121°19'86752.1
2017-Jan-10 05:33N 31°39' E 121°21'355356.1
2017-Jan-10 04:33N 37°34' E 121°26'363261144.2
2017-Jan-10 04:33N 31°31' E 121°19'8466.0
2017-Jan-10 04:32N 31°39' E 121°21'355361.8
2017-Jan-10 03:33N 37°34' E 121°26'35598400.9
2017-Jan-10 03:33N 31°39' E 121°21'72245.1
2017-Jan-10 03:33N 31°31' E 121°19'2 3.7
2017-Jan-10 03:04N 31°33' E 121°19'361719.3
2017-Jan-10 02:33N 37°34' E 121°26'363652795.6
2017-Jan-10 02:33N 31°31' E 121°19'71344.9
2017-Jan-10 02:33N 31°39' E 121°21'73096578146.2
2017-Jan-10 02:33N 05°16' W 004°02'73087351.1
2017-Jan-10 01:33N 31°31' E 121°19'363326397.8
2017-Jan-10 01:33N 37°34' E 121°26'35598402.5
2017-Jan-10 01:33N 31°39' E 121°21'730935995.4
2017-Jan-10 01:21N 05°16' W 004°02'72719193.7
2017-Jan-10 00:33N 37°34' E 121°26'363326396.5
2017-Jan-10 00:33N 31°31' E 121°19'7209.6
2017-Jan-10 00:31N 31°39' E 121°21'355368.9
2017-Jan-09 23:33N 37°34' E 121°26'363652762.3
2017-Jan-09 23:33N 31°31' E 121°20'71100.8
2017-Jan-09 23:33N 31°39' E 121°21'28219.7
2017-Jan-09 23:25N 31°11' E 121°28'383442.3
2017-Jan-09 22:33N 37°34' E 121°26'363261122.2
2017-Jan-09 22:33N 31°31' E 121°20'71056.8
2017-Jan-09 22:33N 31°39' E 121°21'25420.9
2017-Jan-09 22:29N 31°15' E 121°30'379406.7
2017-Jan-09 21:33N 37°34' E 121°26'362326247.7
2017-Jan-09 21:33N 31°31' E 121°21'7456.6
2017-Jan-09 21:32N 31°39' E 121°21'4705064.8
2017-Jan-09 21:27N 24°26' E 117°53'809907.9
2017-Jan-09 20:33N 37°34' E 121°26'366329554.9
2017-Jan-09 20:33N 31°28' E 121°28'121586.0
2017-Jan-09 20:33N 31°39' E 121°21'191585.8
2017-Jan-09 20:32N 31°21' E 121°30'39112361.2
2017-Jan-09 20:30N 37°52' E 121°08'824123528.6
2017-Jan-09 20:30N 24°26' E 117°53'7163289749.7
2017-Jan-09 20:28N 05°16' W 004°02'72717938.9
2017-Jan-09 19:33N 37°34' E 121°26'370333387.3
2017-Jan-09 19:33N 31°24' E 121°35'1335.5
2017-Jan-09 19:33N 31°23' E 121°34'191189.6
2017-Jan-09 19:32N 31°39' E 121°21'7309268495.8
2017-Jan-09 19:31N 05°16' W 004°02'0 0.0
2017-Jan-09 18:33N 05°16' W 004°02'73316597990.9
2017-Jan-09 18:33N 31°20' E 121°42'35367.8
2017-Jan-09 18:33N 31°21' E 121°39'2320944.0
2017-Jan-09 18:33N 31°39' E 121°21'4701028.4
2017-Jan-09 18:06N 24°26' E 117°53'8091497.1
2017-Jan-09 17:33N 37°34' E 121°26'38191371.3
2017-Jan-09 17:33N 31°14' E 121°48'3460934.1
2017-Jan-09 17:33N 31°39' E 121°21'7309207181.2
2017-Jan-09 17:31N 05°16' W 004°02'735827280.7
2017-Jan-09 17:15N 30°60' E 122°09'396573.3
2017-Jan-09 16:33N 37°34' E 121°26'386277789.7
2017-Jan-09 16:33N 31°09' E 121°54'726119.8
2017-Jan-09 16:33N 31°14' E 121°48'167388.7
2017-Jan-09 16:33N 31°03' E 122°03'502829.0
2017-Jan-09 16:32N 31°39' E 121°21'355363.3
2017-Jan-09 15:33N 37°34' E 121°26'391100452.8
2017-Jan-09 15:33N 31°05' E 122°02'4944145.8
2017-Jan-09 15:33N 31°39' E 121°21'4072354.9
2017-Jan-09 15:33N 31°09' E 121°53'11610.5
2017-Jan-09 15:33N 31°08' E 121°54'390392.8
2017-Jan-09 14:33N 37°38' E 121°27'359646452.6
2017-Jan-09 14:33N 31°39' E 121°21'359555.2
2017-Jan-09 14:33N 31°13' E 121°48'232378.4
2017-Jan-09 14:33N 30°59' E 122°10'10374.2
2017-Jan-09 14:31N 31°05' E 121°60'400417.7
2017-Jan-09 13:33N 37°45' E 121°29'388349197.2
2017-Jan-09 13:33N 31°17' E 121°44'44921528.7
2017-Jan-09 13:32N 38°46' E 121°46'445454.9
2017-Jan-09 12:33N 31°20' E 121°40'244848.2
2017-Jan-09 12:33N 31°39' E 121°21'3752546.6
2017-Jan-09 12:24N 37°53' E 121°31'390460.0
2017-Jan-09 11:33N 31°23' E 121°34'19896.3
2017-Jan-09 11:32N 31°39' E 121°21'4703735.4
2017-Jan-09 11:25N 24°26' E 117°53'470550.1
2017-Jan-09 10:33N 31°39' E 121°21'4719163.6
2017-Jan-09 10:30N 24°25' E 117°51'471495.8
2017-Jan-09 09:33N 31°39' E 121°21'47028225.8
2017-Jan-09 09:32N 24°24' E 117°57'0 0.0
2017-Jan-09 08:32N 24°24' E 117°57'47021712.1
2017-Jan-09 08:31N 31°39' E 121°21'0 0.0
2017-Jan-09 07:33N 31°39' E 121°21'47070554.2
2017-Jan-09 07:32N 24°24' E 117°57'4734070.5
2017-Jan-09 07:25N 31°58' E 120°25'725543386.0
2017-Jan-09 07:15N 05°16' W 004°02'730910470.6
2017-Jan-09 06:33N 31°39' E 121°21'37028353.8
2017-Jan-09 06:33N 37°49' E 121°30'82514926.6
2017-Jan-09 06:29N 24°24' E 117°57'45541968.5
2017-Jan-09 06:29N 31°03' E 122°02'4561663.3
2017-Jan-09 06:12N 38°40' E 121°43'422654.6
2017-Jan-09 05:34N 31°39' E 121°21'4691689287.9
2017-Jan-09 05:34N 24°24' E 117°59'8813171154.2
2017-Jan-09 05:33N 38°44' E 121°44'45678242.0
2017-Jan-09 05:33N 31°08' E 121°54'395473406.3
2017-Jan-09 05:33N 37°42' E 121°28'817823.1
2017-Jan-09 04:34N 24°23' E 118°06'8883196426.8
2017-Jan-09 04:33N 38°51' E 121°45'  
Track history (hours):
 
Tides and Currents Weather Stations Pressure Air Temp Water Temp Dewpoint Dewpoint Depression Visibility Wind Speed Wind Dir Waves Ship Positions

Graceful Lady

Last reported at 2017-Jan-19 04:33 UTC. Time now 2017-Jan-19 04:36 UTC.
Position N 31°39' E 121°21'.

Length 6 m.

Type: Pollution control. MMSI: 316014038.

Date/timePositionNaut miles runAvg speedWind from/ knotsBaromVisibWave heightAir tempDewpointWater temp
2017-Jan-19 04:33N 31°39' E 121°21'357642670.8
2017-Jan-19 04:33N 37°36' E 121°25'364187261.0
2017-Jan-19 04:33N 31°31' E 121°20'43153379.2
2017-Jan-19 04:33N 31°15' E 122°05'5237592.9
2017-Jan-19 04:33N 31°41' E 121°12'1111.1
2017-Jan-19 03:33N 31°31' E 121°20'4313943.6
2017-Jan-19 03:33N 31°15' E 122°05'382458744.4
2017-Jan-19 03:33N 37°36' E 121°25'35728563.1
2017-Jan-19 03:32N 31°39' E 121°21'765.4
2017-Jan-19 03:26N 31°40' E 121°13'3 3.9
2017-Jan-19 02:34N 31°38' E 121°16'724403.4
2017-Jan-19 02:33N 31°31' E 121°20'4376685.4
2017-Jan-19 02:33N 31°15' E 122°05'382688116.6
2017-Jan-19 02:33N 37°36' E 121°25'35731349.8
2017-Jan-19 02:33N 31°39' E 121°21'7 7.3
2017-Jan-19 01:33N 31°31' E 121°20'725786.1
2017-Jan-19 01:33N 31°39' E 121°21'4580755.2
2017-Jan-19 01:33N 31°15' E 122°05'382688116.6
2017-Jan-19 01:33N 37°36' E 121°25'361144549.5
2017-Jan-19 01:33N 31°34' E 121°19'3 2.8
2017-Jan-19 00:33N 31°31' E 121°20'4376685.4
2017-Jan-19 00:33N 31°15' E 122°05'382688116.6
2017-Jan-19 00:33N 37°36' E 121°25'365218822.8
2017-Jan-19 00:33N 31°31' E 121°24'8514.3
2017-Jan-19 00:32N 31°39' E 121°21'357363.1
2017-Jan-18 23:33N 37°35' E 121°25'3647527.4
2017-Jan-18 23:31N 31°31' E 121°20'4376685.4
2017-Jan-18 23:30N 31°15' E 122°05'33620.0
2017-Jan-18 23:27N 31°27' E 121°29'14462.6
2017-Jan-18 23:25N 31°39' E 121°21'7 8.3
2017-Jan-18 22:34N 31°31' E 121°19'4338387.2
2017-Jan-18 22:33N 31°15' E 122°05'381685511.4
2017-Jan-18 22:33N 37°34' E 121°25'356160035.4
2017-Jan-18 22:33N 31°39' E 121°21'7 7.1
2017-Jan-18 21:33N 31°32' E 121°19'43153819.3
2017-Jan-18 21:33N 31°15' E 122°05'381457000.5
2017-Jan-18 21:33N 37°34' E 121°25'35612310.2
2017-Jan-18 21:32N 31°39' E 121°21'23328.5
2017-Jan-18 21:27N 31°18' E 121°34'1820.0
2017-Jan-18 20:33N 31°32' E 121°19'2070235.9
2017-Jan-18 20:33N 31°15' E 121°31'29105260.8
2017-Jan-18 20:33N 31°15' E 122°05'383114914.8
2017-Jan-18 20:33N 37°37' E 121°27'35816738.0
2017-Jan-18 20:32N 31°39' E 121°21'4546.0
2017-Jan-18 19:33N 31°15' E 122°05'390468376.2
2017-Jan-18 19:33N 37°44' E 121°30'373223512.1
2017-Jan-18 19:33N 31°32' E 121°19'725591.1
2017-Jan-18 19:33N 31°39' E 121°21'289125.8
2017-Jan-18 19:33N 31°12' E 121°29'2221.7
2017-Jan-18 18:33N 31°31' E 121°19'4351182.9
2017-Jan-18 18:33N 31°15' E 122°05'33119128.8
2017-Jan-18 18:33N 31°07' E 121°28'324806.6
2017-Jan-18 18:33N 31°39' E 121°21'7 7.2
2017-Jan-18 17:34N 31°31' E 121°19'4310967.2
2017-Jan-18 17:33N 31°15' E 122°05'343170.1
2017-Jan-18 17:33N 31°01' E 121°29'38664.8
2017-Jan-18 17:29N 31°39' E 121°21'7 7.7
2017-Jan-18 16:34N 31°31' E 121°19'4351180.1
2017-Jan-18 16:33N 31°15' E 122°05'4532302.1
2017-Jan-18 16:33N 31°39' E 121°21'7 7.2
2017-Jan-18 15:34N 31°31' E 121°19'4351180.1
2017-Jan-18 15:33N 31°15' E 122°05'453845.5
2017-Jan-18 15:33N 31°39' E 121°21'7 7.3
2017-Jan-18 14:34N 31°31' E 121°19'4351180.1
2017-Jan-18 14:33N 31°15' E 122°05'454141.3
2017-Jan-18 14:33N 31°39' E 121°21'7 7.3
2017-Jan-18 13:33N 31°31' E 121°19'4376774.5
2017-Jan-18 13:33N 31°15' E 122°05'451648.2
2017-Jan-18 13:32N 31°39' E 121°21'0 0.0
2017-Jan-18 12:33N 31°39' E 121°21'4580755.2
2017-Jan-18 12:33N 31°15' E 122°05'435483.6
2017-Jan-18 12:33N 31°31' E 121°19'71216408797.9
2017-Jan-18 12:33N 28°08' W 015°26'690413963.2
2017-Jan-18 12:03N 38°39' E 121°49'428864.4
2017-Jan-18 11:34N 31°31' E 121°19'4351180.1
2017-Jan-18 11:33N 31°15' E 122°05'448403297.8
2017-Jan-18 11:33N 38°43' E 121°50'42531211.3
2017-Jan-18 11:33N 31°39' E 121°21'7 7.3
2017-Jan-18 10:34N 31°31' E 121°19'4351242.3
2017-Jan-18 10:33N 31°15' E 122°05'4510094.4
2017-Jan-18 10:33N 31°39' E 121°21'43264821.8
2017-Jan-18 10:33N 38°50' E 121°53'439444.4
2017-Jan-18 09:33N 31°32' E 121°19'43153768.8
2017-Jan-18 09:33N 31°15' E 122°05'453670.7
2017-Jan-18 09:33N 31°39' E 121°21'4545.4
2017-Jan-18 08:33N 31°15' E 122°05'458075.5
2017-Jan-18 08:33N 31°39' E 121°21'37176.2
2017-Jan-18 08:21N 31°02' E 121°29'3038.6
2017-Jan-18 07:33N 31°32' E 121°19'437690.5
2017-Jan-18 07:33N 31°15' E 122°05'4580755.2
2017-Jan-18 07:33N 31°39' E 121°21'321437.5
2017-Jan-18 07:32N 31°07' E 121°28'3334.3
2017-Jan-18 06:33N 31°15' E 122°05'329596.3
2017-Jan-18 06:33N 31°11' E 121°28'282506.8
2017-Jan-18 06:33N 31°39' E 121°21'0 0.0
2017-Jan-18 05:33N 31°39' E 121°21'45161510.5
2017-Jan-18 05:33N 31°15' E 122°05'1210504.5
2017-Jan-18 05:33N 31°09' E 121°53'3736.6
2017-Jan-18 04:33N 31°31' E 121°19'43153548.8
2017-Jan-18 04:33N 31°15' E 122°05'4512423.9
2017-Jan-18 04:33N 31°39' E 121°21'242149.0
2017-Jan-18 04:33N 31°17' E 121°34'1914.3
2017-Jan-18 03:12N 31°31' E 121°19'7573.2
2017-Jan-18 03:11N 31°39' E 121°21'0 0.0
2017-Jan-18 02:33N 31°39' E 121°21'72344.9
2017-Jan-18 02:33N 31°31' E 121°19'0 0.0
2017-Jan-18 01:33N 31°31' E 121°19'7781.6
2017-Jan-18 01:33N 31°39' E 121°21'7 7.3
2017-Jan-18 00:33N 31°31' E 121°19'61856.6
2017-Jan-18 00:33N 31°29' E 121°26'1113097.6
2017-Jan-18 00:33N 31°39' E 121°21'7 7.2
2017-Jan-17 23:33N 31°31' E 121°19'11269.5
2017-Jan-17 23:33N 31°32' E 121°21'71441.2
2017-Jan-17 23:33N 31°39' E 121°21'4593.3
2017-Jan-17 23:04N 31°15' E 122°05'4179.9
2017-Jan-17 22:33N 31°31' E 121°21'6314.1
2017-Jan-17 22:32N 31°36' E 121°17'4269.7
2017-Jan-17 22:31N 31°39' E 121°21'1616.2
2017-Jan-17 21:34N 31°25' E 121°31'1911647.0
2017-Jan-17 21:33N 31°38' E 121°14'6215.2
2017-Jan-17 21:32N 31°39' E 121°21'0 0.0
2017-Jan-17 20:33N 31°39' E 121°21'261380.3
2017-Jan-17 20:32N 31°20' E 121°42'3736.9
2017-Jan-17 19:33N 31°42' E 121°08'11260.9
2017-Jan-17 19:30N 31°39' E 121°21'0 0.0
2017-Jan-17 18:30N 31°39' E 121°21'16505.0
2017-Jan-17 18:28N 31°45' E 121°04'1616.9
2017-Jan-17 17:33N 31°39' E 121°21'0 0.0
2017-Jan-17 16:34N 31°39' E 121°21'0 0.0
2017-Jan-17 15:33N 31°39' E 121°21'0 0.0
2017-Jan-17 14:32N 31°39' E 121°21'0 0.0
2017-Jan-17 13:33N 31°39' E 121°21'0 0.0
2017-Jan-17 12:33N 31°39' E 121°21'432435.1
2017-Jan-17 11:33N 38°50' E 121°56'43214406.8
2017-Jan-17 11:31N 31°39' E 121°21'0 0.0
2017-Jan-17 10:34N 31°39' E 121°21'423507684.6
2017-Jan-17 10:33N 38°41' E 121°53'9043499.6
2017-Jan-17 10:18N 23°57' E 118°07'4904073.7
2017-Jan-17 10:11N 31°39' E 121°14'712.0
2017-Jan-17 09:33N 31°33' E 121°20'5184.0
2017-Jan-17 09:32N 31°39' E 121°21'4833026.9
2017-Jan-17 09:22N 24°06' E 118°09'4855341.2
2017-Jan-17 09:17N 31°47' E 121°00'478657.7
2017-Jan-17 08:33N 24°13' E 118°11'476244763.8
2017-Jan-17 08:33N 31°39' E 121°21'1238.3
2017-Jan-17 08:15N 31°43' E 121°08'469680.0
2017-Jan-17 07:33N 24°21' E 118°09'46948259.5
2017-Jan-17 07:33N 31°39' E 121°21'6339.1
2017-Jan-17 07:32N 31°39' E 121°14'466480.5
2017-Jan-17 06:33N 24°25' E 118°04'467841291.5
2017-Jan-17 06:33N 31°39' E 121°21'51269.8
2017-Jan-17 06:33N 31°34' E 121°19'6 6.0
2017-Jan-17 05:33N 31°30' E 121°25'91807.1
2017-Jan-17 05:33N 31°39' E 121°21'46812755.3
2017-Jan-17 05:31N 24°25' E 118°02'0 0.0
2017-Jan-17 04:34N 24°25' E 118°02'8091456977.5
2017-Jan-17 04:33N 37°36' E 121°25'357116855.6
2017-Jan-17 04:33N 31°39' E 121°21'371167169.7
2017-Jan-17 04:33N 37°50' E 121°33'9 8.6
2017-Jan-17 03:34N 37°42' E 121°30'725539.7
2017-Jan-17 03:33N 37°36' E 121°25'35730606.7
2017-Jan-17 03:33N 31°39' E 121°21'46812755.3
2017-Jan-17 03:31N 24°25' E 118°02'808849.5
2017-Jan-17 02:34N 37°34' E 121°28'34825.1
2017-Jan-17 02:33N 37°36' E 121°25'35711477.5
2017-Jan-17 02:32N 31°39' E 121°21'46825905.2
2017-Jan-17 02:31N 24°25' E 118°02'803845.3
2017-Jan-17 01:34N 37°28' E 121°34'34957127.0
2017-Jan-17 01:33N 31°39' E 121°21'35775609.7
2017-Jan-17 01:33N 37°36' E 121°25'80920666.9
2017-Jan-17 01:31N 24°25' E 118°02'802842.2
2017-Jan-17 00:33N 37°26' E 121°35'121263.0
2017-Jan-17 00:33N 37°36' E 121°25'35720083.8
2017-Jan-17 00:32N 31°39' E 121°21'46823713.3
2017-Jan-17 00:31N 24°25' E 118°02'809849.5
2017-Jan-16 23:33N 37°36' E 121°25'3571285364.8
2017-Jan-16 23:33N 31°39' E 121°21'3481253230.7
2017-Jan-16 23:33N 37°26' E 121°35'80217297.6
2017-Jan-16 23:31N 24°25' E 118°02'802844.2
2017-Jan-16 22:34N 37°27' E 121°35'122273.4
2017-Jan-16 22:33N 37°36' E 121°25'357642682.4
2017-Jan-16 22:33N 31°39' E 121°21'46810589.0
2017-Jan-16 22:31N 24°25' E 118°02'4632468.4
2017-Jan-16 22:19N 31°15' E 122°05'89553.8
2017-Jan-16 22:19N 31°15' E 121°56'14198.3
2017-Jan-16 22:15N 31°19' E 121°41'2130.9
2017-Jan-16 21:33N 31°15' E 122°05'1517526.0
2017-Jan-16 21:33N 31°17' E 121°49'370443469.7
2017-Jan-16 21:33N 37°27' E 121°35'123322.6
2017-Jan-16 21:33N 37°36' E 121°25'377112954.2
2017-Jan-16 21:33N 31°19' E 121°41'261971.9
2017-Jan-16 21:32N 31°39' E 121°21'46817911.1
2017-Jan-16 21:31N 24°25' E 118°02'802844.0
2017-Jan-16 20:34N 37°27' E 121°35'373223566.9
2017-Jan-16 20:33N 31°15' E 122°05'38249151.4
2017-Jan-16 20:33N 37°36' E 121°25'37779732.4
2017-Jan-16 20:33N 31°19' E 121°41'269268.1
2017-Jan-16 20:33N 31°39' E 121°21'46814768.8
2017-Jan-16 20:31N 24°25' E 118°02'802843.2
2017-Jan-16 19:34N 37°27' E 121°35'373268280.3
2017-Jan-16 19:33N 31°15' E 122°05'382105864.6
2017-Jan-16 19:33N 37°36' E 121°25'3579811.9
2017-Jan-16 19:31N 31°39' E 121°21'46860139.6
2017-Jan-16 19:31N 24°25' E 118°02'45726987.4
2017-Jan-16 19:30N 31°19' E 121°41'367393.2
2017-Jan-16 18:34N 37°27' E 121°35'1214403.5
2017-Jan-16 18:33N 37°36' E 121°25'382125114.6
2017-Jan-16 18:33N 31°15' E 122°05'211379.5
2017-Jan-16 18:32N 31°19' E 121°41'2623170.2
2017-Jan-16 18:32N 31°39' E 121°21'46816036.5
2017-Jan-16 18:31N 24°25' E 118°02'717226239.7
2017-Jan-16 18:14N 05°18' W 004°03'733410825.4
2017-Jan-16 17:33N 31°17' E 121°45'1821180.6
2017-Jan-16 17:33N 31°15' E 122°05'373335350.4
2017-Jan-16 17:33N 37°27' E 121°35'1210798.5
2017-Jan-16 17:33N 37°36' E 121°25'35715868.7
2017-Jan-16 17:32N 31°39' E 121°21'46820044.8
2017-Jan-16 17:31N 24°25' E 118°02'4575225.7
2017-Jan-16 17:25N 31°19' E 121°41'1821.0
2017-Jan-16 16:33N 31°07' E 121°56'380170956.7
2017-Jan-16 16:33N 37°27' E 121°35'125399.3
2017-Jan-16 16:33N 37°36' E 121°25'382172029.9
2017-Jan-16 16:33N 31°15' E 122°05'46311035.5
2017-Jan-16 16:31N 24°25' E 118°02'46813052.7
2017-Jan-16 16:28N 31°39' E 121°21'348380.6
2017-Jan-16 15:34N 37°27' E 121°35'3841381549.2
2017-Jan-16 15:34N 31°03' E 122°03'711850.4
2017-Jan-16 15:33N 30°60' E 122°09'1518551.7
2017-Jan-16 15:33N 31°15' E 122°05'38259836.5
2017-Jan-16 15:33N 37°36' E 121°25'80919556.5
2017-Jan-16 15:31N 24°25' E 118°02'45713950.1
2017-Jan-16 15:29N 31°19' E 121°41'262439.0
2017-Jan-16 15:28N 31°39' E 121°21'4549.3
2017-Jan-16 14:33N 31°15' E 122°05'373447133.9
2017-Jan-16 14:33N 37°27' E 121°35'121489.5
2017-Jan-16 14:33N 37°36' E 121°25'37716330.7
2017-Jan-16 14:31N 31°19' E 121°41'261716.3
2017-Jan-16 14:31N 31°39' E 121°21'468561286.2
2017-Jan-16 14:31N 24°25' E 118°02'803844.0
2017-Jan-16 13:33N 37°27' E 121°35'3731341401.6
2017-Jan-16 13:33N 31°15' E 122°05'452018.9
2017-Jan-16 13:32N 31°39' E 121°21'357214227.5
2017-Jan-16 13:32N 37°36' E 121°25'80932741.9
2017-Jan-16 13:31N 24°25' E 118°02'4571127.5
2017-Jan-16 13:06N 31°19' E 121°41'457839.0
2017-Jan-16 12:34N 24°25' E 118°02'8032889099.1
2017-Jan-16 12:34N 37°27' E 121°35'373268280.3
2017-Jan-16 12:33N 31°15' E 122°05'382458753.6
2017-Jan-16 12:33N 37°36' E 121°25'3779348.1
2017-Jan-16 12:31N 31°19' E 121°41'26340.7
2017-Jan-16 12:26N 31°39' E 121°21'348394.9
2017-Jan-16 11:34N 37°27' E 121°35'37389426.8
2017-Jan-16 11:33N 31°15' E 122°05'382344059.8
2017-Jan-16 11:33N 37°36' E 121°25'35721071.6
2017-Jan-16 11:32N 31°39' E 121°21'46817181.4
2017-Jan-16 11:31N 24°25' E 118°02'4579856.8
2017-Jan-16 11:28N 31°19' E 121°41'367406.0
2017-Jan-16 10:34N 37°27' E 121°35'367661042.9
2017-Jan-16 10:33N 31°19' E 121°41'2125749.8
2017-Jan-16 10:33N 31°15' E 122°05'38276457.7
2017-Jan-16 10:33N 37°36' E 121°25'357183623.5
2017-Jan-16 10:33N 31°39' E 121°21'46811612.0
2017-Jan-16 10:31N 24°25' E 118°02'802843.7
2017-Jan-16 09:34N 37°27' E 121°35'373223566.9
2017-Jan-16 09:33N 31°15' E 122°05'38249151.4
2017-Jan-16 09:33N 37°36' E 121°25'357257073.0
2017-Jan-16 09:33N 31°39' E 121°21'46811856.4
2017-Jan-16 09:31N 24°25' E 118°02'802844.9
2017-Jan-16 08:34N 37°27' E 121°35'373268280.3
2017-Jan-16 08:33N 31°15' E 122°05'38398411.4
2017-Jan-16 08:33N 37°36' E 121°23'3577435.9
2017-Jan-16 08:30N 31°39' E 121°21'730936444.3
2017-Jan-16 08:18N 05°16' W 004°02'72809757.0
2017-Jan-16 07:34N 37°27' E 121°35'373670700.8
2017-Jan-16 07:33N 31°15' E 122°05'383688868.9
2017-Jan-16 07:33N 37°36' E 121°23'72681868985.7
2017-Jan-16 07:33N 05°16' W 004°02'716370263.0
2017-Jan-16 07:27N 24°26' E 117°53'4705603.9
2017-Jan-16 07:22N 31°39' E 121°21'26945.7
2017-Jan-16 07:20N 31°19' E 121°41'367469.5
2017-Jan-16 06:34N 37°27' E 121°35'373121948.7
2017-Jan-16 06:33N 31°15' E 122°05'383688868.9
2017-Jan-16 06:33N 37°36' E 121°23'35780399.1
2017-Jan-16 06:33N 31°39' E 121°21'7309159469.7
2017-Jan-16 06:30N 05°16' W 004°02'72757691.2
2017-Jan-16 05:34N 37°32' E 121°30'71286.3
2017-Jan-16 05:33N 37°36' E 121°23'3831377737.8
2017-Jan-16 05:33N 31°15' E 122°05'452691.8
2017-Jan-16 05:32N 31°39' E 121°21'360368.1
2017-Jan-16 04:34N 37°39' E 121°28'3851385929.8
2017-Jan-16 04:33N 31°15' E 122°05'38351027.3
2017-Jan-16 04:33N 37°36' E 121°23'35718118.1
2017-Jan-16 04:32N 31°39' E 121°21'26353.7
2017-Jan-16 04:27N 31°19' E 121°41'387429.0
2017-Jan-16 03:33N 37°46' E 121°31'393157054.5
2017-Jan-16 03:33N 31°15' E 122°05'452018.9
2017-Jan-16 03:32N 31°39' E 121°21'26410.0
2017-Jan-16 03:28N 31°19' E 121°41'75216.3
2017-Jan-16 03:07N 31°59' E 120°26'95167.1
2017-Jan-16 02:33N 31°15' E 122°05'46688255.1
2017-Jan-16 02:33N 24°26' E 117°53'810972355.8
2017-Jan-16 02:33N 37°36' E 121°25'37710933.9
2017-Jan-16 02:31N 31°19' E 121°41'241841.6
2017-Jan-16 02:30N 31°37' E 121°23'5317261.6
2017-Jan-16 02:30N 31°59' E 120°26'51593.5
2017-Jan-16 02:25N 31°39' E 121°21'9189.0
2017-Jan-16 02:22N 31°40' E 121°11'5365.7
2017-Jan-16 01:33N 31°15' E 122°05'382229440.0
2017-Jan-16 01:33N 37°36' E 121°25'37725107.5
2017-Jan-16 01:32N 31°19' E 121°41'26622.0
2017-Jan-16 01:30N 31°39' E 121°21'4547.6
2017-Jan-16 00:33N 31°15' E 122°05'38291776.0
2017-Jan-16 00:33N 37°36' E 121°25'37721867.8
2017-Jan-16 00:32N 31°19' E 121°41'26899.8
2017-Jan-16 00:30N 31°39' E 121°21'4547.2
2017-Jan-15 23:33N 31°15' E 122°05'38265552.2
2017-Jan-15 23:33N 37°36' E 121°25'37779750.7
2017-Jan-15 23:33N 31°19' E 121°41'7529911.6
2017-Jan-15 23:33N 31°58' E 120°26'513645.9
2017-Jan-15 23:32N 31°39' E 121°21'4546.1
2017-Jan-15 22:33N 31°15' E 122°05'455569.3
2017-Jan-15 22:33N 31°39' E 121°21'470187962.3
2017-Jan-15 22:33N 24°26' E 117°53'46097376.3
2017-Jan-15 22:33N 31°19' E 121°41'37561360.4
2017-Jan-15 22:32N 37°34' E 121°25'354127422.5
2017-Jan-15 22:32N 31°40' E 121°11'42324.9
2017-Jan-15 22:24N 31°58' E 120°26'725622873.5
2017-Jan-15 22:05N 05°16' W 004°02'727013768.4
2017-Jan-15 21:34N 37°34' E 121°25'381274141.3
2017-Jan-15 21:33N 31°15' E 122°05'211207.0
2017-Jan-15 21:32N 31°19' E 121°41'262317.0
2017-Jan-15 21:32N 31°39' E 121°21'7309114402.2
2017-Jan-15 21:28N 05°16' W 004°02'7256967462.6
2017-Jan-15 21:27N 31°58' E 120°26'101273.5
2017-Jan-15 21:05N 31°04' E 122°05'4 8.3
2017-Jan-15 20:34N 31°05' E 122°00'390280767.7
2017-Jan-15 20:33N 37°34' E 121°25'381171341.0
2017-Jan-15 20:33N 31°15' E 122°05'532169.7
2017-Jan-15 20:32N 31°40' E 121°11'9309.9
2017-Jan-15 20:30N 31°39' E 121°21'512641.7
2017-Jan-15 20:29N 31°58' E 120°26'40636556.9
2017-Jan-15 20:28N 38°39' E 121°49'4408077.4
2017-Jan-15 20:25N 31°19' E 121°41'7330277767.7
2017-Jan-15 20:24N 05°16' W 004°02'73418800.6
2017-Jan-15 19:33N 31°10' E 121°52'147255.1
2017-Jan-15 19:33N 31°20' E 121°40'374336878.9
2017-Jan-15 19:33N 37°34' E 121°25'33927743.8
2017-Jan-15 19:33N 31°59' E 120°26'9513711.6
2017-Jan-15 19:32N 31°15' E 122°05'4527498.5
2017-Jan-15 19:29N 38°47' E 121°52'42942882.3
2017-Jan-15 19:28N 31°39' E 121°21'9236.6
2017-Jan-15 19:26N 31°40' E 121°11'354406.9
2017-Jan-15 18:34N 37°34' E 121°25'379341364.4
2017-Jan-15 18:33N 31°15' E 121°46'2410722.9
2017-Jan-15 18:33N 31°02' E 122°09'1346680.5
2017-Jan-15 18:33N 31°15' E 122°05'3155270.2
2017-Jan-15 18:33N 31°25' E 121°31'652601.8
2017-Jan-15 18:32N 31°59' E 120°26'511878.3
2017-Jan-15 18:30N 31°39' E 121°21'730926312666.3
2017-Jan-15 18:30N 05°16' W 004°02'73537788.2
2017-Jan-15 17:33N 31°15' E 122°05'1037546.5
2017-Jan-15 17:33N 31°05' E 122°01'39052035.8
2017-Jan-15 17:33N 37°34' E 121°25'36362208.5
2017-Jan-15 17:33N 31°31' E 121°22'8191.5
2017-Jan-15 17:30N 31°39' E 121°21'730995331.3
2017-Jan-15 17:26N 05°16' W 004°02'725658175.1
2017-Jan-15 17:18N 31°59' E 120°26'91122.7
2017-Jan-15 16:34N 31°07' E 121°55'123462.5
2017-Jan-15 16:33N 31°15' E 122°05'38150761.3
2017-Jan-15 16:33N 37°34' E 121°25'356426610.6
2017-Jan-15 16:33N 31°39' E 121°21'7220.8
2017-Jan-15 16:31N 31°40' E 121°12'44339.9
2017-Jan-15 16:23N 31°59' E 120°26'42713.4
2017-Jan-15 16:20N 31°40' E 121°11'354461.0
2017-Jan-15 15:34N 37°34' E 121°25'381685234.8
2017-Jan-15 15:33N 31°15' E 122°05'9512242.5
2017-Jan-15 15:33N 31°59' E 120°26'511349.6
2017-Jan-15 15:31N 31°39' E 121°21'945.8
2017-Jan-15 15:20N 31°40' E 121°11'3748.1
2017-Jan-15 14:33N 31°17' E 121°44'1821805.7
2017-Jan-15 14:33N 31°15' E 122°05'381342621.3
2017-Jan-15 14:33N 37°34' E 121°25'3558203.6
2017-Jan-15 14:31N 31°39' E 121°21'4702857.5
2017-Jan-15 14:21N 24°26' E 117°53'4682633.5
2017-Jan-15 14:10N 31°40' E 121°11'5386.5
2017-Jan-15 13:33N 31°15' E 122°05'38197893.3
2017-Jan-15 13:33N 37°34' E 121°25'35514542.8
2017-Jan-15 13:32N 31°39' E 121°21'4702606.6
2017-Jan-15 13:21N 24°26' E 117°53'8091015.3
2017-Jan-15 12:33N 37°34' E 121°25'381114210.7
2017-Jan-15 12:33N 31°15' E 122°05'454038.0
2017-Jan-15 12:32N 31°39' E 121°21'51199.7
2017-Jan-15 12:17N 31°58' E 120°26'95131.1
2017-Jan-15 11:33N 31°15' E 122°05'4511538.1
2017-Jan-15 11:33N 31°39' E 121°21'35585317.7
2017-Jan-15 11:33N 37°34' E 121°25'809727970.5
2017-Jan-15 11:33N 24°26' E 117°53'8901976.3
2017-Jan-15 11:06N 38°52' E 121°56'81148.8
2017-Jan-15 10:33N 37°34' E 121°25'381195802.0
2017-Jan-15 10:33N 31°15' E 122°05'456730.6
2017-Jan-15 10:33N 31°39' E 121°21'42917541.6
2017-Jan-15 10:31N 38°46' E 121°55'8 8.5
2017-Jan-15 09:34N 38°39' E 121°52'6860997.1
2017-Jan-15 09:33N 37°34' E 121°25'381685457.7
2017-Jan-15 09:33N 31°15' E 122°05'454751.3
2017-Jan-15 09:33N 31°39' E 121°21'4545.3
2017-Jan-15 08:33N 31°15' E 122°05'4516154.5
2017-Jan-15 08:33N 31°39' E 121°21'361144256.9
2017-Jan-15 08:33N 37°39' E 121°28'361362.9
2017-Jan-15 07:33N 31°39' E 121°21'4511529.4
2017-Jan-15 07:33N 31°15' E 122°05'39237124.7
2017-Jan-15 07:33N 37°45' E 121°29'392395.9
2017-Jan-15 06:33N 31°15' E 122°04'39525414.1
2017-Jan-15 06:32N 37°49' E 121°30'3715778.4
2017-Jan-15 06:28N 31°39' E 121°21'720.8
2017-Jan-15 06:09N 31°40' E 121°13'2643.5
2017-Jan-15 05:33N 31°24' E 121°37'222524.4
2017-Jan-15 05:33N 31°37' E 121°17'37467305.3
2017-Jan-15 05:33N 37°51' E 121°31'3728647.4
2017-Jan-15 05:30N 31°39' E 121°21'723.9
2017-Jan-15 05:12N 31°40' E 121°12'3757.2
2017-Jan-15 04:33N 31°16' E 121°45'33544.4
2017-Jan-15 04:33N 31°19' E 121°43'196090.2
2017-Jan-15 04:33N 31°15' E 122°04'442471.4
2017-Jan-15 04:32N 31°39' E 121°21'61629.0
2017-Jan-15 04:32N 31°32' E 121°22'414.5
2017-Jan-15 04:15N 31°35' E 121°18'4160.3
2017-Jan-15 03:33N 31°08' E 121°55'103408.2
2017-Jan-15 03:33N 31°15' E 122°04'40875.9
2017-Jan-15 03:31N 31°32' E 121°22'7356.0
2017-Jan-15 03:29N 31°39' E 121°21'5457.9
2017-Jan-15 02:33N 31°01' E 122°07'4580103.2
2017-Jan-15 02:33N 31°29' E 121°26'354559.1
2017-Jan-15 02:33N 31°15' E 122°04'916277.1
2017-Jan-15 02:32N 32°01' E 120°33'4721043.2
2017-Jan-15 02:32N 31°39' E 121°21'4445.1
2017-Jan-15 01:33N 31°15' E 122°04'392108434.4
2017-Jan-15 01:33N 37°46' E 121°31'3511263278.5
2017-Jan-15 01:33N 31°59' E 120°27'5011270.7
2017-Jan-15 01:33N 31°39' E 121°21'4703121.1
2017-Jan-15 01:24N 24°26' E 117°53'4627810.8
2017-Jan-15 01:20N 31°27' E 121°30'1418.0
2017-Jan-15 00:33N 31°39' E 121°21'363163282.8
2017-Jan-15 00:33N 37°41' E 121°29'387232440.3
2017-Jan-15 00:33N 31°15' E 122°04'30447.8
2017-Jan-15 00:29N 31°25' E 121°32'6526141.5
2017-Jan-15 00:29N 31°58' E 120°25'4725373.3
2017-Jan-15 00:24N 24°26' E 117°53'812966.9
2017-Jan-14 23:33N 37°37' E 121°27'383106134.2
2017-Jan-14 23:33N 31°15' E 122°04'951374.3
2017-Jan-14 23:29N 31°58' E 120°25'511717.5
2017-Jan-14 23:27N 31°39' E 121°21'355396.0
2017-Jan-14 22:33N 37°34' E 121°25'380684687.9
2017-Jan-14 22:33N 31°15' E 122°04'44795.0
2017-Jan-14 22:30N 31°39' E 121°21'512964.0
2017-Jan-14 22:29N 31°58' E 120°25'7255102832.3
2017-Jan-14 22:25N 05°16' W 004°02'732197609.8
2017-Jan-14 22:20N 31°15' E 121°30'2531.9
2017-Jan-14 21:33N 31°39' E 121°21'3551279732.7
2017-Jan-14 21:33N 37°34' E 121°25'380684687.9
2017-Jan-14 21:33N 31°15' E 122°04'952350.7
2017-Jan-14 21:31N 31°58' E 120°25'339354.1
2017-Jan-14 20:33N 37°34' E 121°25'380456458.6
2017-Jan-14 20:33N 31°15' E 122°04'445859.9
2017-Jan-14 20:33N 31°39' E 121°21'504536.8
2017-Jan-14 20:32N 31°58' E 120°26'4721210.4
2017-Jan-14 20:09N 24°26' E 117°53'8091368.9
2017-Jan-14 19:33N 37°34' E 121°25'380684698.7
2017-Jan-14 19:33N 31°15' E 122°04'46657792.1
2017-Jan-14 19:33N 24°26' E 117°53'4709557.4
2017-Jan-14 19:30N 31°39' E 121°21'47215.1
2017-Jan-14 19:17N 31°05' E 121°60'390540.7
2017-Jan-14 18:33N 37°34' E 121°25'380114116.4
2017-Jan-14 18:33N 31°15' E 122°04'12293.8
2017-Jan-14 18:31N 31°03' E 122°04'516585.7
2017-Jan-14 18:30N 31°39' E 121°21'7309137045.0
2017-Jan-14 18:27N 05°16' W 004°02'72778146.1
2017-Jan-14 17:34N 38°40' E 121°42'6848602.7
2017-Jan-14 17:33N 37°34' E 121°25'380124488.7
2017-Jan-14 17:33N 31°15' E 122°04'44541.8
2017-Jan-14 17:28N 31°39' E 121°21'50346.3
2017-Jan-14 17:20N 31°04' E 122°02'464601.7
2017-Jan-14 16:33N 38°48' E 121°44'7590432.6
2017-Jan-14 16:33N 37°34' E 121°25'35579983.3
2017-Jan-14 16:33N 31°39' E 121°21'449888.6
2017-Jan-14 16:33N 31°15' E 122°04'17320.4
2017-Jan-14 16:30N 30°58' E 122°11'501048.3
2017-Jan-14 16:27N 31°30' E 121°25'1010.7
2017-Jan-14 15:34N 31°39' E 121°21'357257148.8
2017-Jan-14 15:33N 37°36' E 121°25'382687757.8
2017-Jan-14 15:33N 31°15' E 122°04'323653.3
2017-Jan-14 15:33N 31°27' E 121°29'369372.6
2017-Jan-14 14:33N 37°36' E 121°25'382114629.9
2017-Jan-14 14:33N 31°15' E 122°04'4426369.6
2017-Jan-14 14:33N 31°39' E 121°21'172715.8
2017-Jan-14 14:33N 31°24' E 121°32'372376.1
2017-Jan-14 13:33N 37°36' E 121°25'3821375515.6
2017-Jan-14 13:33N 31°15' E 122°04'443366.1
2017-Jan-14 13:33N 31°39' E 121°21'2479.1
2017-Jan-14 13:14N 31°17' E 121°34'379557.8
2017-Jan-14 12:33N 37°36' E 121°25'382343884.3
2017-Jan-14 12:33N 31°15' E 122°04'30888.5
2017-Jan-14 12:31N 31°14' E 121°29'25518.8
2017-Jan-14 12:28N 31°39' E 121°21'357388.4
2017-Jan-14 11:33N 37°36' E 121°25'38232750.9
2017-Jan-14 11:33N 31°15' E 122°04'4422600.9
2017-Jan-14 11:32N 31°39' E 121°21'357363.1
2017-Jan-14 10:33N 37°36' E 121°25'382687768.6
2017-Jan-14 10:33N 31°15' E 122°04'441566.4
2017-Jan-14 10:32N 31°39' E 121°21'357367.8
2017-Jan-14 09:33N 37°36' E 121°25'382114626.3
2017-Jan-14 09:33N 31°15' E 122°04'441883.4
2017-Jan-14 09:32N 31°39' E 121°21'357366.9
2017-Jan-14 08:33N 37°36' E 121°25'382105808.9
2017-Jan-14 08:33N 31°15' E 122°04'448789.2
2017-Jan-14 08:33N 31°39' E 121°21'28119.0
2017-Jan-14 08:19N 31°54' E 120°53'342454.9
2017-Jan-14 07:33N 37°36' E 121°25'382687757.8
2017-Jan-14 07:33N 31°15' E 122°04'44888.8
2017-Jan-14 07:30N 31°39' E 121°21'2062.3
2017-Jan-14 07:11N 31°46' E 120°59'350556.0
2017-Jan-14 06:33N 37°36' E 121°25'382687757.8
2017-Jan-14 06:33N 31°15' E 122°04'442109.4
2017-Jan-14 06:32N 31°39' E 121°21'357365.2
2017-Jan-14 05:33N 37°36' E 121°25'382458505.2
2017-Jan-14 05:33N 31°15' E 122°04'416175.8
2017-Jan-14 05:33N 31°37' E 121°23'731115075.2
2017-Jan-14 05:04N 05°16' W 004°02'726914316.2
2017-Jan-14 04:33N 37°36' E 121°25'382105810.5
2017-Jan-14 04:33N 31°15' E 122°04'382383.5
2017-Jan-14 03:33N 37°36' E 121°25'382458505.2
2017-Jan-14 03:33N 31°15' E 122°04'276888.0
2017-Jan-14 03:33N 31°24' E 121°35'37293.2
2017-Jan-13 23:33N 37°36' E 121°25'382687768.6
2017-Jan-13 23:33N 31°15' E 122°04'623132.3
2017-Jan-13 23:32N 31°45' E 121°01'4716840.1
2017-Jan-13 23:32N 31°19' E 121°47'46212687.9
2017-Jan-13 23:30N 24°26' E 117°53'810861.5
2017-Jan-13 22:33N 37°36' E 121°25'382458519.5
2017-Jan-13 22:33N 31°15' E 122°04'162830.0
2017-Jan-13 22:33N 31°19' E 121°47'4628656.8
2017-Jan-13 22:30N 24°26' E 117°53'4647101.5
2017-Jan-13 22:26N 31°07' E 122°17'392447.5
2017-Jan-13 21:33N 37°36' E 121°25'3851385957.2
2017-Jan-13 21:33N 31°12' E 122°08'47363.1
2017-Jan-13 21:33N 31°15' E 122°04'1628299.9
2017-Jan-13 21:33N 31°19' E 121°47'3716514.5
2017-Jan-13 21:33N 31°41' E 121°12'730025842.1
2017-Jan-13 21:16N 05°16' W 004°02'734410279.1
2017-Jan-13 20:33N 31°16' E 121°55'813968.7
2017-Jan-13 20:33N 31°15' E 122°04'382229256.2
2017-Jan-13 20:33N 37°36' E 121°25'377226326.5
2017-Jan-13 20:33N 31°19' E 121°47'344064.9
2017-Jan-13 20:33N 31°38' E 121°14'73031011138.0
2017-Jan-13 20:32N 05°16' W 004°02'72697417.8
2017-Jan-13 19:33N 37°36' E 121°25'3781359512.2
2017-Jan-13 19:33N 31°18' E 121°45'175583.5
2017-Jan-13 19:33N 31°15' E 122°04'495502.1
2017-Jan-13 19:33N 31°38' E 121°14'341340.1
2017-Jan-13 19:31N 31°19' E 121°47'73351886215.0
2017-Jan-13 19:31N 05°16' W 004°02'7163106123.3
2017-Jan-13 19:27N 24°26' E 117°53'810909.3
2017-Jan-13 18:33N 37°36' E 121°25'382458512.4
2017-Jan-13 18:33N 31°15' E 122°04'162572.7
2017-Jan-13 18:33N 31°19' E 121°47'343694.7
2017-Jan-13 18:32N 31°38' E 121°14'358363.4
2017-Jan-13 17:33N 37°36' E 121°25'382687768.6
2017-Jan-13 17:33N 31°15' E 122°04'493088.7
2017-Jan-13 17:32N 31°38' E 121°14'3460967.9
2017-Jan-13 17:32N 31°19' E 121°47'27104.1
2017-Jan-13 17:17N 30°57' E 122°05'735542228.4
2017-Jan-13 17:07N 05°16' W 004°02'726913130.9
2017-Jan-13 16:33N 37°36' E 121°25'382687768.6
2017-Jan-13 16:33N 31°15' E 122°04'47168526.5
2017-Jan-13 16:33N 31°37' E 121°16'5323792.1
2017-Jan-13 16:33N 31°02' E 122°02'222782.2
2017-Jan-13 16:33N 31°19' E 121°47'2 6.2
2017-Jan-13 16:10N 31°18' E 121°44'813.3
2017-Jan-13 15:33N 31°11' E 121°50'3238362.8
2017-Jan-13 15:33N 31°32' E 121°22'4020708.9
2017-Jan-13 15:33N 31°06' E 121°58'391127851.0
2017-Jan-13 15:33N 37°36' E 121°25'37710951.1
2017-Jan-13 15:31N 31°19' E 121°47'1212.5
2017-Jan-13 14:33N 31°08' E 121°53'1220890.3
2017-Jan-13 14:33N 31°15' E 122°04'3360276.0
2017-Jan-13 14:33N 31°28' E 121°28'3822828.2
2017-Jan-13 14:33N 31°04' E 122°03'202170.2
2017-Jan-13 14:33N 31°19' E 121°47'377381.8
2017-Jan-13 13:33N 37°36' E 121°25'38381197.1
2017-Jan-13 13:33N 31°13' E 121°48'1812817.7
2017-Jan-13 13:33N 31°25' E 121°33'1347196.4
2017-Jan-13 13:33N 31°19' E 121°47'1614151.3
2017-Jan-13 13:33N 31°15' E 122°04'21340.8
2017-Jan-13 13:29N 30°55' E 122°12'4143.9
2017-Jan-13 12:34N 31°23' E 121°37'373335957.8
2017-Jan-13 12:33N 37°36' E 121°25'376123144.2
2017-Jan-13 12:33N 31°20' E 121°41'206114.5
2017-Jan-13 12:33N 31°15' E 122°04'16665.9
2017-Jan-13 12:32N 31°19' E 121°47'4621075.1
2017-Jan-13 12:06N 24°26' E 117°53'8101499.0
2017-Jan-13 11:33N 37°36' E 121°25'382687779.3
2017-Jan-13 11:33N 31°15' E 122°04'2125023.6
2017-Jan-13 11:33N 31°21' E 121°41'53702.8
2017-Jan-13 11:33N 31°19' E 121°47'4622941.7
2017-Jan-13 11:24N 24°26' E 117°53'716327818.8
2017-Jan-13 11:08N 05°16' W 004°02'726912467.8
2017-Jan-13 10:33N 37°36' E 121°25'382687779.3
2017-Jan-13 10:33N 31°15' E 122°04'1864447.1
2017-Jan-13 10:33N 31°18' E 121°44'31534.5
2017-Jan-13 10:33N 31°19' E 121°47'4628107.5
2017-Jan-13 10:30N 24°26' E 117°53'458488.3
2017-Jan-13 09:34N 31°15' E 121°46'381274177.7
2017-Jan-13 09:33N 37°36' E 121°25'382687768.6
2017-Jan-13 09:33N 31°15' E 122°04'73521018014.7
2017-Jan-13 09:33N 05°16' W 004°02'73351015658.1
2017-Jan-13 09:33N 31°19' E 121°47'4624917.3
2017-Jan-13 09:27N 24°26' E 117°53'810909.3
2017-Jan-13 08:33N 37°36' E 121°25'382687768.6
2017-Jan-13 08:33N 31°15' E 122°04'1315999.1
2017-Jan-13 08:33N 31°13' E 121°49'7374.0
2017-Jan-13 08:32N 31°19' E 121°47'1616.0
2017-Jan-13 07:33N 31°15' E 122°04'1141230.0
2017-Jan-13 07:33N 31°10' E 121°52'38686946.0
2017-Jan-13 07:33N 37°36' E 121°25'37728891.4
2017-Jan-13 07:32N 31°19' E 121°47'375382.3
2017-Jan-13 06:33N 37°34' E 121°25'387348678.9
2017-Jan-13 06:33N 31°07' E 121°57'10740.6
2017-Jan-13 06:33N 31°15' E 122°04'162021.4
2017-Jan-13 06:32N 31°19' E 121°47'733516745.1
2017-Jan-13 06:06N 05°16' W 004°02'727013463.8
2017-Jan-13 05:33N 37°34' E 121°25'380684004.6
2017-Jan-13 05:33N 31°15' E 122°04'1037660.7
2017-Jan-13 05:33N 31°05' E 122°04'7353827197.9
2017-Jan-13 05:33N 05°16' W 004°02'7335266737.1
2017-Jan-13 05:31N 31°19' E 121°47'375389.8
2017-Jan-13 04:33N 37°34' E 121°25'380105231.5
2017-Jan-13 04:33N 31°15' E 122°04'73521203101.6
2017-Jan-13 04:33N 05°16' W 004°02'733526406964.6
2017-Jan-13 04:33N 31°19' E 121°47'26972.9
2017-Jan-13 04:31N 31°02' E 122°11'393408.2
2017-Jan-13 03:33N 37°34' E 121°25'380105234.3
2017-Jan-13 03:33N 31°15' E 122°04'163144.4
2017-Jan-13 03:33N 31°19' E 121°47'375378.3
2017-Jan-13 02:33N 37°34' E 121°25'3801368009.3
2017-Jan-13 02:33N 31°15' E 122°04'16775.3
2017-Jan-13 02:32N 31°19' E 121°47'3 2.8
2017-Jan-13 01:33N 31°16' E 121°45'3781359336.9
2017-Jan-13 01:33N 37°34' E 121°25'809485693.4
2017-Jan-13 01:33N 24°24' E 117°57'465279259.1
2017-Jan-13 01:33N 31°15' E 122°04'16255.0
2017-Jan-13 01:30N 31°19' E 121°47'1111.8
2017-Jan-13 00:33N 31°09' E 121°53'1119773.4
2017-Jan-13 00:33N 31°15' E 122°04'46297818.4
2017-Jan-13 00:33N 24°24' E 118°05'459330463.4
2017-Jan-13 00:33N 31°20' E 121°45'2121.3
2017-Jan-12 23:33N 31°05' E 122°01'390701984.2
2017-Jan-12 23:33N 37°34' E 121°25'3801368009.3
2017-Jan-12 23:33N 31°15' E 122°04'19370.0
2017-Jan-12 23:30N 31°22' E 121°43'4631795.5
2017-Jan-12 23:15N 24°26' E 117°53'8081171.2
2017-Jan-12 22:33N 37°34' E 121°25'380684004.6
2017-Jan-12 22:33N 31°15' E 122°04'46654061.1
2017-Jan-12 22:33N 24°26' E 117°53'463833120.7
2017-Jan-12 22:33N 31°22' E 121°43'1919.2
2017-Jan-12 21:33N 31°15' E 122°04'383172129.8
2017-Jan-12 21:33N 37°36' E 121°27'37528120.9
2017-Jan-12 21:32N 31°22' E 121°43'733256161.0
2017-Jan-12 21:25N 05°16' W 004°02'72728521.7
2017-Jan-12 20:33N 37°41' E 121°28'387696787.8
2017-Jan-12 20:33N 31°15' E 122°04'196221.9
2017-Jan-12 20:33N 31°22' E 121°43'7332206215.5
2017-Jan-12 20:31N 05°16' W 004°02'72727568.9
2017-Jan-12 19:33N 37°45' E 121°29'3911409377.4
2017-Jan-12 19:33N 31°15' E 122°04'193259.1
2017-Jan-12 19:33N 31°22' E 121°43'389391.1
2017-Jan-12 18:33N 37°50' E 121°30'396356408.3
2017-Jan-12 18:33N 31°15' E 122°04'1911406.9
2017-Jan-12 18:33N 31°22' E 121°43'29271.3
2017-Jan-12 18:27N 31°03' E 122°10'735920161.2
2017-Jan-12 18:05N 05°16' W 004°02'727413861.8
2017-Jan-12 17:33N 37°54' E 121°32'393353726.2
2017-Jan-12 17:33N 31°22' E 121°43'199777.3
2017-Jan-12 17:33N 31°15' E 122°04'102337.1
2017-Jan-12 17:33N 31°05' E 122°01'2222.6
2017-Jan-12 16:33N 31°22' E 121°43'1628401.8
2017-Jan-12 16:33N 31°08' E 121°53'1213804.4
2017-Jan-12 16:33N 31°15' E 122°04'735172305.6
2017-Jan-12 16:27N 05°17' W 004°01'73378171.9
2017-Jan-12 15:33N 31°13' E 121°48'144990.3
2017-Jan-12 15:33N 31°15' E 122°04'19510.8
2017-Jan-12 15:31N 31°22' E 121°43'5 5.1
2017-Jan-12 14:33N 31°17' E 121°44'1761628.0
2017-Jan-12 14:33N 31°15' E 122°04'19912.6
2017-Jan-12 14:32N 31°22' E 121°43'0 0.0
2017-Jan-12 13:34N 31°22' E 121°43'1968441.3
2017-Jan-12 13:33N 31°15' E 122°04'2588768.8
2017-Jan-12 13:33N 31°23' E 121°37'2524.6
2017-Jan-12 12:33N 31°15' E 122°04'19184.0
2017-Jan-12 12:27N 31°22' E 121°43'1921.1
2017-Jan-12 11:33N 31°15' E 122°04'198555.2
2017-Jan-12 11:33N 31°22' E 121°43'4382342.7
2017-Jan-12 11:22N 38°40' E 121°50'445550.5
2017-Jan-12 10:33N 31°15' E 122°04'19575.1
2017-Jan-12 10:31N 31°22' E 121°43'46317917.4
2017-Jan-12 10:30N 24°26' E 117°53'88466281.9
2017-Jan-12 10:29N 38°46' E 121°52'451484.5
2017-Jan-12 09:33N 31°15' E 122°04'192975.7
2017-Jan-12 09:33N 31°22' E 121°43'3085.0
2017-Jan-12 09:11N 30°59' E 121°20'4165.1
2017-Jan-12 08:33N 31°15' E 122°04'191140.7
2017-Jan-12 08:32N 31°22' E 121°43'302324.2
2017-Jan-12 08:32N 30°59' E 121°20'4142.5
2017-Jan-12 07:33N 31°15' E 122°04'7352853818.2
2017-Jan-12 07:33N 05°16' W 004°02'73132632755.6
2017-Jan-12 07:33N 30°59' E 121°20'309932.0
2017-Jan-12 07:33N 31°22' E 121°43'18353.7
2017-Jan-12 07:29N 31°29' E 121°24'3739.7
2017-Jan-12 06:33N 31°15' E 122°04'191267.4
2017-Jan-12 06:33N 31°22' E 121°43'22280.5
2017-Jan-12 06:28N 31°32' E 121°20'4145.3
2017-Jan-12 05:33N 31°15' E 122°04'7352287698.1
2017-Jan-12 05:32N 05°16' W 004°02'7332280803.8
2017-Jan-12 05:30N 31°22' E 121°43'2380.9
2017-Jan-12 05:13N 31°32' E 121°20'1725.6
2017-Jan-12 04:33N 31°23' E 121°37'2529652.3
2017-Jan-12 04:33N 31°15' E 122°04'192013.0
2017-Jan-12 04:33N 31°22' E 121°43'232106.6
2017-Jan-12 04:32N 31°32' E 121°20'2324.0
2017-Jan-12 03:33N 31°19' E 121°43'193265.1
2017-Jan-12 03:33N 31°15' E 122°04'114935.7
2017-Jan-12 03:33N 31°04' E 122°04'472101.0
2017-Jan-12 03:31N 31°32' E 121°20'231244.8
2017-Jan-12 03:30N 31°22' E 121°43'4551865.9
2017-Jan-12 03:16N 38°56' E 121°56'470667.0
2017-Jan-12 02:33N 31°06' E 121°57'1012586.8
2017-Jan-12 02:33N 31°15' E 122°04'19769.0
2017-Jan-12 02:32N 31°22' E 121°43'449807591.5
2017-Jan-12 02:32N 38°50' E 121°55'43915348.0
2017-Jan-12 02:30N 31°32' E 121°20'25348.8
2017-Jan-12 02:26N 31°18' E 121°44'1011.3
2017-Jan-12 01:33N 31°10' E 121°52'416095.2
2017-Jan-12 01:33N 31°08' E 121°56'455545868.5
2017-Jan-12 01:33N 38°43' E 121°53'448201468.3
2017-Jan-12 01:33N 31°15' E 122°04'192534.9
2017-Jan-12 01:33N 31°22' E 121°43'27104.1
2017-Jan-12 01:17N 31°36' E 121°17'4562.1
2017-Jan-12 00:33N 31°15' E 122°04'113678.6
2017-Jan-12 00:33N 31°04' E 122°03'1413.1
2017-Jan-12 00:33N 31°03' E 122°03'25430.2
2017-Jan-12 00:30N 31°22' E 121°43'5 5.2
2017-Jan-11 23:33N 31°19' E 121°48'156538.7
2017-Jan-11 23:33N 31°15' E 122°04'202732.4
2017-Jan-11 23:33N 30°56' E 122°12'2019.9
2017-Jan-11 22:33N 31°15' E 122°04'0 0.0
2017-Jan-11 21:33N 31°15' E 122°04'391939.0
2017-Jan-11 21:32N 31°30' E 121°23'953.9
2017-Jan-11 21:23N 31°33' E 121°32'3339.8
2017-Jan-11 20:33N 31°15' E 122°04'4048327.1
2017-Jan-11 20:33N 31°36' E 121°24'731354958.6
2017-Jan-11 20:25N 05°16' W 004°02'73528394.6
2017-Jan-11 19:33N 31°15' E 122°04'443167.7
2017-Jan-11 19:32N 31°39' E 121°21'47013113.1
2017-Jan-11 19:30N 24°26' E 117°53'716394461.2
2017-Jan-11 19:25N 05°16' W 004°02'73528494.3
2017-Jan-11 18:33N 31°15' E 122°04'443369.9
2017-Jan-11 18:33N 31°39' E 121°21'4444.6
2017-Jan-11 17:33N 31°15' E 122°04'3961426185.8
2017-Jan-11 17:33N 37°50' E 121°32'37226773.8
2017-Jan-11 17:33N 31°39' E 121°21'364369.2
2017-Jan-11 16:33N 37°42' E 121°30'38973613.0
2017-Jan-11 16:33N 31°15' E 122°04'45243991.3
2017-Jan-11 16:32N 38°47' E 121°46'42949799.7
2017-Jan-11 16:32N 31°39' E 121°21'32790.5
2017-Jan-11 16:30N 31°15' E 121°46'1516.3
2017-Jan-11 15:33N 31°15' E 122°04'103024.1
2017-Jan-11 15:33N 31°08' E 121°56'432354.5
2017-Jan-11 15:32N 31°39' E 121°21'357365.1
2017-Jan-11 14:33N 37°36' E 121°25'38247432.3
2017-Jan-11 14:33N 31°15' E 122°04'141577.1
2017-Jan-11 14:32N 31°01' E 122°08'5511570.5
2017-Jan-11 14:32N 31°39' E 121°21'25319.2
2017-Jan-11 14:27N 31°14' E 121°29'382424.7
2017-Jan-11 13:33N 37°36' E 121°25'357321436.4
2017-Jan-11 13:33N 31°39' E 121°21'4410559.0
2017-Jan-11 13:33N 31°15' E 122°04'382384.1
2017-Jan-11 12:33N 37°36' E 121°25'382152839.8
2017-Jan-11 12:33N 31°15' E 122°04'4412183.5
2017-Jan-11 12:33N 31°39' E 121°21'4444.3
2017-Jan-11 11:33N 31°15' E 122°04'4439596.2
2017-Jan-11 11:33N 31°39' E 121°21'357142860.6
2017-Jan-11 11:33N 37°36' E 121°25'382383.5
2017-Jan-11 10:33N 31°15' E 122°04'382458519.5
2017-Jan-11 10:33N 37°36' E 121°25'357214290.9
2017-Jan-11 10:33N 31°39' E 121°21'0 0.0
2017-Jan-11 09:34N 31°39' E 121°21'357428574.7
2017-Jan-11 09:33N 37°36' E 121°25'382343884.3
2017-Jan-11 09:33N 31°15' E 122°04'291024.1
2017-Jan-11 09:32N 31°24' E 121°32'372383.2
2017-Jan-11 08:33N 37°36' E 121°25'382458512.4
2017-Jan-11 08:33N 31°15' E 122°04'446886.3
2017-Jan-11 08:33N 31°39' E 121°21'37122230.4
2017-Jan-11 08:32N 37°49' E 121°30'380839.3
2017-Jan-11 08:05N 31°29' E 121°25'372710.9
2017-Jan-11 07:33N 37°41' E 121°28'610216.6
2017-Jan-11 07:33N 37°36' E 121°25'35767669.7
2017-Jan-11 07:33N 31°39' E 121°21'4479192.5
2017-Jan-11 07:33N 31°15' E 122°04'381772.0
2017-Jan-11 07:32N 31°30' E 121°23'366376.2
2017-Jan-11 06:33N 37°36' E 121°25'382458519.5
2017-Jan-11 06:33N 31°15' E 122°04'382274897.3
2017-Jan-11 06:33N 37°35' E 121°25'363186798.9
2017-Jan-11 06:33N 31°32' E 121°20'6851.0
2017-Jan-11 06:33N 31°39' E 121°21'357361.5
2017-Jan-11 05:33N 37°36' E 121°25'056.4
2017-Jan-11 05:33N 37°36' E 121°25'3827353.2
2017-Jan-11 05:30N 31°15' E 122°04'442073.1
2017-Jan-11 05:29N 31°34' E 121°18'5560.5
2017-Jan-11 05:28N 31°39' E 121°21'3082.1
2017-Jan-11 05:06N 31°09' E 121°27'387704.7
2017-Jan-11 04:33N 37°36' E 121°25'0949.1
2017-Jan-11 04:33N 37°36' E 121°25'382687536.8
2017-Jan-11 04:33N 31°15' E 122°04'4532082.4
2017-Jan-11 04:33N 31°35' E 121°18'51104.7
2017-Jan-11 04:33N 31°39' E 121°21'284023.0
2017-Jan-11 04:33N 31°11' E 121°28'384389.7
2017-Jan-11 03:33N 37°36' E 121°25'092.2
2017-Jan-11 03:33N 37°36' E 121°25'3821375058.4
2017-Jan-11 03:33N 31°15' E 122°04'4413184.8
2017-Jan-11 03:33N 31°39' E 121°21'25287.5
2017-Jan-11 03:28N 31°15' E 121°30'23153.4
2017-Jan-11 03:19N 31°35' E 121°17'360476.6
2017-Jan-11 02:33N 37°36' E 121°25'382275111.7
2017-Jan-11 02:33N 31°15' E 122°04'382114619.6
2017-Jan-11 02:33N 37°36' E 121°25'3578514.3
2017-Jan-11 02:31N 31°39' E 121°21'449.3
2017-Jan-11 02:25N 31°36' E 121°17'360416.5
2017-Jan-11 01:33N 37°36' E 121°25'35971812.1
2017-Jan-11 01:33N 31°37' E 121°16'359161569.6
2017-Jan-11 01:33N 37°36' E 121°25'35736734.4
2017-Jan-11 01:32N 31°39' E 121°21'2057.4
2017-Jan-11 01:12N 31°21' E 121°31'375587.0
2017-Jan-11 00:33N 37°36' E 121°25'357142692.0
2017-Jan-11 00:33N 31°39' E 121°13'71262.3
2017-Jan-11 00:33N 31°39' E 121°21'357642851.2
2017-Jan-11 00:33N 37°36' E 121°25'3737983.5
2017-Jan-11 00:30N 31°23' E 121°30'38108.3
2017-Jan-11 00:09N 31°02' E 122°08'395669.7
2017-Jan-10 23:33N 37°36' E 121°25'0 6.1
2017-Jan-10 23:33N 37°36' E 121°25'35722167.3
2017-Jan-10 23:32N 31°39' E 121°21'519682.7
2017-Jan-10 23:32N 31°04' E 122°05'38135316.8
2017-Jan-10 23:32N 31°26' E 121°29'3233.5
2017-Jan-10 22:34N 31°06' E 121°59'391703807.4
2017-Jan-10 22:33N 37°36' E 121°25'36673248.1
2017-Jan-10 22:33N 31°29' E 121°24'9920.7
2017-Jan-10 22:33N 31°39' E 121°21'539114952.8
2017-Jan-10 22:11N 49°17' W 122°51'50918156.5
2017-Jan-10 21:33N 37°36' E 121°25'387174004.4
2017-Jan-10 21:33N 31°10' E 121°52'39762154.3
2017-Jan-10 21:33N 37°46' E 121°29'36812611.9
2017-Jan-10 21:31N 31°39' E 121°21'61128.6
2017-Jan-10 21:31N 31°33' E 121°19'363378.7
2017-Jan-10 20:33N 37°36' E 121°25'35986093.2
2017-Jan-10 20:33N 31°37' E 121°15'5257.4
2017-Jan-10 20:32N 31°39' E 121°21'357365.6
2017-Jan-10 19:33N 37°36' E 121°25'35579934.8
2017-Jan-10 19:33N 31°41' E 121°11'9303.7
2017-Jan-10 19:31N 31°39' E 121°21'7309907330.3
2017-Jan-10 19:31N 05°16' W 004°02'736529757.6
2017-Jan-10 19:16N 31°05' E 122°17'393552.8
2017-Jan-10 18:33N 37°36' E 121°25'388697857.5
2017-Jan-10 18:33N 31°10' E 122°12'5293599.1
2017-Jan-10 18:33N 31°39' E 121°21'539067369.0
2017-Jan-10 18:29N 49°18' W 122°53'53795853.8
2017-Jan-10 17:33N 31°14' E 122°02'3831377915.6
2017-Jan-10 17:33N 37°36' E 121°25'357160718.0
2017-Jan-10 17:33N 31°39' E 121°21'357357.9
2017-Jan-10 16:33N 37°36' E 121°25'3811370337.4
2017-Jan-10 16:33N 31°16' E 121°52'35127050.3
2017-Jan-10 16:33N 31°39' E 121°21'357357.4
2017-Jan-10 15:33N 37°36' E 121°25'3771358022.1
2017-Jan-10 15:33N 31°19' E 121°44'286262.6
2017-Jan-10 15:33N 31°39' E 121°21'4201425.9
2017-Jan-10 15:16N 38°38' E 121°41'6490.9
2017-Jan-10 14:33N 37°36' E 121°25'709734.8
2017-Jan-10 14:33N 38°45' E 121°43'42676746.9
2017-Jan-10 14:33N 31°39' E 121°21'357361.9
2017-Jan-10 13:33N 37°36' E 121°25'35775630.8
2017-Jan-10 13:33N 31°39' E 121°21'4431762.4
2017-Jan-10 13:33N 31°22' E 122°09'4444.3
2017-Jan-10 12:33N 31°39' E 121°21'357642862.0
2017-Jan-10 12:33N 37°36' E 121°25'37596325.9
2017-Jan-10 12:33N 31°22' E 122°01'1717.0
2017-Jan-10 11:33N 31°06' E 121°59'1812988.7
2017-Jan-10 11:33N 31°23' E 121°53'321809.7
2017-Jan-10 11:32N 31°39' E 121°21'2929.7
2017-Jan-10 10:33N 31°21' E 121°48'292106.2
2017-Jan-10 10:33N 30°59' E 122°10'582207.2
2017-Jan-10 10:31N 31°39' E 121°21'2526.3
2017-Jan-10 09:33N 31°20' E 121°41'25537.0
2017-Jan-10 09:31N 31°39' E 121°21'0 0.0
2017-Jan-10 08:34N 31°39' E 121°21'355355.0
2017-Jan-10 07:33N 37°34' E 121°26'355159898.7
2017-Jan-10 07:33N 31°39' E 121°21'1614114.5
2017-Jan-10 07:33N 31°25' E 121°30'7320142434.9
2017-Jan-10 07:30N 05°16' W 004°02'732377314.2
2017-Jan-10 07:24N 31°16' E 121°33'378444.4
2017-Jan-10 06:33N 37°34' E 121°26'363435526.2
2017-Jan-10 06:33N 31°31' E 121°21'8670.4
2017-Jan-10 06:33N 31°39' E 121°21'7309127113.9
2017-Jan-10 06:29N 05°16' W 004°02'7320123134.1
2017-Jan-10 06:26N 31°11' E 121°29'382439.3
2017-Jan-10 05:33N 37°34' E 121°26'363326424.1
2017-Jan-10 05:33N 31°31' E 121°19'86752.1
2017-Jan-10 05:33N 31°39' E 121°21'355356.1
2017-Jan-10 04:33N 37°34' E 121°26'363261144.2
2017-Jan-10 04:33N 31°31' E 121°19'8466.0
2017-Jan-10 04:32N 31°39' E 121°21'355361.8
2017-Jan-10 03:33N 37°34' E 121°26'35598400.9
2017-Jan-10 03:33N 31°39' E 121°21'72245.1
2017-Jan-10 03:33N 31°31' E 121°19'2 3.7
2017-Jan-10 03:04N 31°33' E 121°19'361719.3
2017-Jan-10 02:33N 37°34' E 121°26'363652795.6
2017-Jan-10 02:33N 31°31' E 121°19'71344.9
2017-Jan-10 02:33N 31°39' E 121°21'73096578146.2
2017-Jan-10 02:33N 05°16' W 004°02'73087351.1
2017-Jan-10 01:33N 31°31' E 121°19'363326397.8
2017-Jan-10 01:33N 37°34' E 121°26'35598402.5
2017-Jan-10 01:33N 31°39' E 121°21'730935995.4
2017-Jan-10 01:21N 05°16' W 004°02'72719193.7
2017-Jan-10 00:33N 37°34' E 121°26'363326396.5
2017-Jan-10 00:33N 31°31' E 121°19'7209.6
2017-Jan-10 00:31N 31°39' E 121°21'355368.9
2017-Jan-09 23:33N 37°34' E 121°26'363652762.3
2017-Jan-09 23:33N 31°31' E 121°20'71100.8
2017-Jan-09 23:33N 31°39' E 121°21'28219.7
2017-Jan-09 23:25N 31°11' E 121°28'383442.3
2017-Jan-09 22:33N 37°34' E 121°26'363261122.2
2017-Jan-09 22:33N 31°31' E 121°20'71056.8
2017-Jan-09 22:33N 31°39' E 121°21'25420.9
2017-Jan-09 22:29N 31°15' E 121°30'379406.7
2017-Jan-09 21:33N 37°34' E 121°26'362326247.7
2017-Jan-09 21:33N 31°31' E 121°21'7456.6
2017-Jan-09 21:32N 31°39' E 121°21'4705064.8
2017-Jan-09 21:27N 24°26' E 117°53'809907.9
2017-Jan-09 20:33N 37°34' E 121°26'366329554.9
2017-Jan-09 20:33N 31°28' E 121°28'121586.0
2017-Jan-09 20:33N 31°39' E 121°21'191585.8
2017-Jan-09 20:32N 31°21' E 121°30'39112361.2
2017-Jan-09 20:30N 37°52' E 121°08'824123528.6
2017-Jan-09 20:30N 24°26' E 117°53'7163289749.7
2017-Jan-09 20:28N 05°16' W 004°02'72717938.9
2017-Jan-09 19:33N 37°34' E 121°26'370333387.3
2017-Jan-09 19:33N 31°24' E 121°35'1335.5
2017-Jan-09 19:33N 31°23' E 121°34'191189.6
2017-Jan-09 19:32N 31°39' E 121°21'7309268495.8
2017-Jan-09 19:31N 05°16' W 004°02'0 0.0
2017-Jan-09 18:33N 05°16' W 004°02'73316597990.9
2017-Jan-09 18:33N 31°20' E 121°42'35367.8
2017-Jan-09 18:33N 31°21' E 121°39'2320944.0
2017-Jan-09 18:33N 31°39' E 121°21'4701028.4
2017-Jan-09 18:06N 24°26' E 117°53'8091497.1
2017-Jan-09 17:33N 37°34' E 121°26'38191371.3
2017-Jan-09 17:33N 31°14' E 121°48'3460934.1
2017-Jan-09 17:33N 31°39' E 121°21'7309207181.2
2017-Jan-09 17:31N 05°16' W 004°02'735827280.7
2017-Jan-09 17:15N 30°60' E 122°09'396573.3
2017-Jan-09 16:33N 37°34' E 121°26'386277789.7
2017-Jan-09 16:33N 31°09' E 121°54'726119.8
2017-Jan-09 16:33N 31°14' E 121°48'167388.7
2017-Jan-09 16:33N 31°03' E 122°03'502829.0
2017-Jan-09 16:32N 31°39' E 121°21'355363.3
2017-Jan-09 15:33N 37°34' E 121°26'391100452.8
2017-Jan-09 15:33N 31°05' E 122°02'4944145.8
2017-Jan-09 15:33N 31°39' E 121°21'4072354.9
2017-Jan-09 15:33N 31°09' E 121°53'11610.5
2017-Jan-09 15:33N 31°08' E 121°54'390392.8
2017-Jan-09 14:33N 37°38' E 121°27'359646452.6
2017-Jan-09 14:33N 31°39' E 121°21'359555.2
2017-Jan-09 14:33N 31°13' E 121°48'232378.4
2017-Jan-09 14:33N 30°59' E 122°10'10374.2
2017-Jan-09 14:31N 31°05' E 121°60'400417.7
2017-Jan-09 13:33N 37°45' E 121°29'388349197.2
2017-Jan-09 13:33N 31°17' E 121°44'44921528.7
2017-Jan-09 13:32N 38°46' E 121°46'445454.9
2017-Jan-09 12:33N 31°20' E 121°40'244848.2
2017-Jan-09 12:33N 31°39' E 121°21'3752546.6
2017-Jan-09 12:24N 37°53' E 121°31'390460.0
2017-Jan-09 11:33N 31°23' E 121°34'19896.3
2017-Jan-09 11:32N 31°39' E 121°21'4703735.4
2017-Jan-09 11:25N 24°26' E 117°53'470550.1
2017-Jan-09 10:33N 31°39' E 121°21'4719163.6
2017-Jan-09 10:30N 24°25' E 117°51'471495.8
2017-Jan-09 09:33N 31°39' E 121°21'47028225.8
2017-Jan-09 09:32N 24°24' E 117°57'0 0.0
2017-Jan-09 08:32N 24°24' E 117°57'47021712.1
2017-Jan-09 08:31N 31°39' E 121°21'0 0.0
2017-Jan-09 07:33N 31°39' E 121°21'47070554.2
2017-Jan-09 07:32N 24°24' E 117°57'4734070.5
2017-Jan-09 07:25N 31°58' E 120°25'725543386.0
2017-Jan-09 07:15N 05°16' W 004°02'730910470.6
2017-Jan-09 06:33N 31°39' E 121°21'37028353.8
2017-Jan-09 06:33N 37°49' E 121°30'82514926.6
2017-Jan-09 06:29N 24°24' E 117°57'45541968.5
2017-Jan-09 06:29N 31°03' E 122°02'4561663.3
2017-Jan-09 06:12N 38°40' E 121°43'422654.6
2017-Jan-09 05:34N 31°39' E 121°21'4691689287.9
2017-Jan-09 05:34N 24°24' E 117°59'8813171154.2
2017-Jan-09 05:33N 38°44' E 121°44'45678242.0
2017-Jan-09 05:33N 31°08' E 121°54'395473406.3
2017-Jan-09 05:33N 37°42' E 121°28'817823.1
2017-Jan-09 04:34N 24°23' E 118°06'8883196426.8
2017-Jan-09 04:33N 38°51' E 121°45'  

Dump ship's entire track history